Observation data for McCamey on 05/15/2018      Previous  Date  Next       Current Mesonet Observations  Soil Data  Daily Summary Page  Observations in Plain Language
KMC4 150500Z 13010KT 23/18 A2997 RMK A01 T02310176  RH  071%=      5-min Rain = 0
KMC4 150501Z 13010KT 23/18 A2997 RMK A01 T02310177  RH  071%=      5-min Rain = 0
KMC4 150502Z 12009KT 23/18 A2997 RMK A01 T02310176  RH  071%=      5-min Rain = 0
KMC4 150503Z 12009KT 23/18 A2997 RMK A01 T02310177  RH  071%=      5-min Rain = 0
KMC4 150504Z 12010KT 23/18 A2997 RMK A01 T02310177  RH  071%=      5-min Rain = 0
KMC4 150505Z 12011KT 23/18 A2997 RMK A01 T02310176  RH  071%=      5-min Rain = 0
KMC4 150506Z 12010KT 23/18 A2997 RMK A01 T02320177  RH  071%=      5-min Rain = 0
KMC4 150507Z 11011KT 23/18 A2997 RMK A01 T02320176  RH  071%=      5-min Rain = 0
KMC4 150508Z 11010KT 23/18 A2997 RMK A01 T02310176  RH  071%=      5-min Rain = 0
KMC4 150509Z 11009KT 23/18 A2997 RMK A01 T02320176  RH  071%=      5-min Rain = 0
KMC4 150510Z 11009KT 23/18 A2997 RMK A01 T02310176  RH  071%=      5-min Rain = 0
KMC4 150511Z 11009KT 23/18 A2997 RMK A01 T02310176  RH  071%=      5-min Rain = 0
KMC4 150512Z 11010KT 23/18 A2997 RMK A01 T02310177  RH  072%=      5-min Rain = 0
KMC4 150513Z 12010KT 23/18 A2997 RMK A01 T02310178  RH  072%=      5-min Rain = 0
KMC4 150514Z 12010KT 23/18 A2997 RMK A01 T02300178  RH  072%=      5-min Rain = 0
KMC4 150515Z 12011KT 23/18 A2997 RMK A01 T02300180  RH  073%=      5-min Rain = 0
KMC4 150516Z 12011KT 23/18 A2997 RMK A01 T02300181  RH  074%=      5-min Rain = 0
KMC4 150517Z 12011KT 23/18 A2997 RMK A01 T02300181  RH  074%=      5-min Rain = 0
KMC4 150518Z 12011KT 23/18 A2997 RMK A01 T02300183  RH  075%=      5-min Rain = 0
KMC4 150519Z 13012KT 23/18 A2997 RMK A01 T02300183  RH  075%=      5-min Rain = 0
KMC4 150520Z 13013KT 23/18 A2997 RMK A01 T02300184  RH  076%=      5-min Rain = 0
KMC4 150521Z 12011KT 23/19 A2997 RMK A01 T02300185  RH  076%=      5-min Rain = 0
KMC4 150522Z 12011KT 23/19 A2997 RMK A01 T02300185  RH  076%=      5-min Rain = 0
KMC4 150523Z 13014KT 23/19 A2997 RMK A01 T02290186  RH  076%=      5-min Rain = 0
KMC4 150524Z 13014KT 23/19 A2997 RMK A01 T02290186  RH  077%=      5-min Rain = 0
KMC4 150525Z 12012KT 23/19 A2997 RMK A01 T02290186  RH  077%=      5-min Rain = 0
KMC4 150526Z 13013KT 23/19 A2997 RMK A01 T02290186  RH  077%=      5-min Rain = 0
KMC4 150527Z 12012KT 23/19 A2997 RMK A01 T02290187  RH  077%=      5-min Rain = 0
KMC4 150528Z 12010KT 23/19 A2997 RMK A01 T02290187  RH  077%=      5-min Rain = 0
KMC4 150529Z 13010KT 23/19 A2997 RMK A01 T02290187  RH  077%=      5-min Rain = 0
KMC4 150530Z 13010KT 23/19 A2997 RMK A01 T02290186  RH  077%=      5-min Rain = 0
KMC4 150531Z 13011KT 23/19 A2997 RMK A01 T02280186  RH  077%=      5-min Rain = 0
KMC4 150532Z 13009KT 23/19 A2997 RMK A01 T02280186  RH  077%=      5-min Rain = 0
KMC4 150533Z 13011KT 23/19 A2997 RMK A01 T02280186  RH  077%=      5-min Rain = 0
KMC4 150534Z 13011KT 23/19 A2997 RMK A01 T02270186  RH  077%=      5-min Rain = 0
KMC4 150535Z 13010KT 23/19 A2997 RMK A01 T02270186  RH  078%=      5-min Rain = 0
KMC4 150536Z 12009KT 23/19 A2699 RMK A01 T02270187  RH  078%=      5-min Rain = 0
KMC4 150537Z 13010KT 23/19 A2997 RMK A01 T02270187  RH  078%=      5-min Rain = 0
KMC4 150538Z 13010KT 23/19 A2997 RMK A01 T02270187  RH  078%=      5-min Rain = 0
KMC4 150539Z 13009KT 23/19 A2997 RMK A01 T02270188  RH  078%=      5-min Rain = 0
KMC4 150540Z 13009KT 23/19 A2997 RMK A01 T02270188  RH  079%=      5-min Rain = 0
KMC4 150541Z 12010KT 23/19 A2997 RMK A01 T02270188  RH  079%=      5-min Rain = 0
KMC4 150542Z 12011KT 23/19 A2997 RMK A01 T02270189  RH  079%=      5-min Rain = 0
KMC4 150543Z 12010KT 23/19 A2997 RMK A01 T02270189  RH  079%=      5-min Rain = 0
KMC4 150544Z 12010KT 23/19 A2997 RMK A01 T02260189  RH  079%=      5-min Rain = 0
KMC4 150545Z 12008KT 23/19 A2997 RMK A01 T02270189  RH  079%=      5-min Rain = 0
KMC4 150546Z 12009KT 23/19 A2997 RMK A01 T02260189  RH  079%=      5-min Rain = 0
KMC4 150547Z 12010KT 23/19 A2997 RMK A01 T02260190  RH  080%=      5-min Rain = 0
KMC4 150548Z 12009KT 23/19 A2997 RMK A01 T02270190  RH  080%=      5-min Rain = 0
KMC4 150549Z 12008KT 23/19 A2997 RMK A01 T02270190  RH  080%=      5-min Rain = 0
KMC4 150550Z 12009KT 23/19 A2997 RMK A01 T02260190  RH  080%=      5-min Rain = 0
KMC4 150551Z 12008KT 23/19 A2997 RMK A01 T02260190  RH  080%=      5-min Rain = 0
KMC4 150552Z 12009KT 23/19 A2997 RMK A01 T02260190  RH  080%=      5-min Rain = 0
KMC4 150553Z 12010KT 23/19 A2997 RMK A01 T02260191  RH  081%=      5-min Rain = 0
KMC4 150554Z 12008KT 23/19 A2997 RMK A01 T02260191  RH  081%=      5-min Rain = 0
KMC4 150555Z 12007KT 23/19 A2997 RMK A01 T02260191  RH  081%=      5-min Rain = 0
KMC4 150556Z 12010KT 23/19 A2997 RMK A01 T02260192  RH  081%=      5-min Rain = 0
KMC4 150557Z 12009KT 23/19 A2997 RMK A01 T02250191  RH  081%=      5-min Rain = 0
KMC4 150558Z 12008KT 23/19 A2997 RMK A01 T02260192  RH  081%=      5-min Rain = 0
KMC4 150559Z 12011KT 23/19 A2997 RMK A01 T02260192  RH  081%=      5-min Rain = 0
KMC4 150600Z 12010KT 23/19 A2997 RMK A01 T02260192  RH  082%=      5-min Rain = 0
KMC4 150601Z 12011KT 23/19 A2997 RMK A01 T02260192  RH  081%=      5-min Rain = 0
KMC4 150602Z 12009KT 23/19 A2997 RMK A01 T02260193  RH  082%=      5-min Rain = 0
KMC4 150603Z 12009KT 23/19 A2997 RMK A01 T02260192  RH  081%=      5-min Rain = 0
KMC4 150604Z 11008KT 23/19 A2997 RMK A01 T02260192  RH  081%=      5-min Rain = 0
KMC4 150605Z 11007KT 23/19 A2997 RMK A01 T02250192  RH  082%=      5-min Rain = 0
KMC4 150606Z 12010KT 23/19 A2996 RMK A01 T02250193  RH  082%=      5-min Rain = 0
KMC4 150607Z 12009KT 23/19 A2996 RMK A01 T02250193  RH  082%=      5-min Rain = 0
KMC4 150608Z 13007KT 23/19 A2996 RMK A01 T02250193  RH  082%=      5-min Rain = 0
KMC4 150609Z 12008KT 23/19 A2996 RMK A01 T02250193  RH  082%=      5-min Rain = 0
KMC4 150610Z 12008KT 22/19 A2996 RMK A01 T02240193  RH  082%=      5-min Rain = 0
KMC4 150611Z 12008KT 23/19 A2996 RMK A01 T02250193  RH  082%=      5-min Rain = 0
KMC4 150612Z 12008KT 23/19 A2996 RMK A01 T02250193  RH  082%=      5-min Rain = 0
KMC4 150613Z 12008KT 22/19 A2996 RMK A01 T02240193  RH  082%=      5-min Rain = 0
KMC4 150614Z 12007KT 22/19 A2996 RMK A01 T02240193  RH  082%=      5-min Rain = 0
KMC4 150615Z 12007KT 22/19 A2996 RMK A01 T02240193  RH  083%=      5-min Rain = 0
KMC4 150616Z 13008KT 22/19 A2996 RMK A01 T02240193  RH  083%=      5-min Rain = 0
KMC4 150617Z 12006KT 22/19 A2996 RMK A01 T02240193  RH  083%=      5-min Rain = 0
KMC4 150618Z 11007KT 22/19 A2996 RMK A01 T02240193  RH  083%=      5-min Rain = 0
KMC4 150619Z 12006KT 22/19 A2996 RMK A01 T02240193  RH  083%=      5-min Rain = 0
KMC4 150620Z 13008KT 22/19 A2996 RMK A01 T02240193  RH  083%=      5-min Rain = 0
KMC4 150621Z 12007KT 22/19 A2996 RMK A01 T02230192  RH  083%=      5-min Rain = 0
KMC4 150622Z 12007KT 22/19 A2996 RMK A01 T02230192  RH  083%=      5-min Rain = 0
KMC4 150623Z 12007KT 22/19 A2996 RMK A01 T02230192  RH  083%=      5-min Rain = 0
KMC4 150624Z 12008KT 22/19 A2996 RMK A01 T02230193  RH  083%=      5-min Rain = 0
KMC4 150625Z 12007KT 22/19 A2996 RMK A01 T02220193  RH  083%=      5-min Rain = 0
KMC4 150626Z 12008KT 22/19 A2996 RMK A01 T02220193  RH  083%=      5-min Rain = 0
KMC4 150627Z 12008KT 22/19 A2996 RMK A01 T02220192  RH  083%=      5-min Rain = 0
KMC4 150628Z 12007KT 22/19 A2996 RMK A01 T02220192  RH  083%=      5-min Rain = 0
KMC4 150629Z 12007KT 22/19 A2996 RMK A01 T02220192  RH  083%=      5-min Rain = 0
KMC4 150630Z 12008KT 22/19 A2996 RMK A01 T02220192  RH  083%=      5-min Rain = 0
KMC4 150631Z 12008KT 22/19 A2996 RMK A01 T02220192  RH  083%=      5-min Rain = 0
KMC4 150632Z 11009KT 22/19 A2996 RMK A01 T02230193  RH  083%=      5-min Rain = 0
KMC4 150633Z 11010KT 22/19 A2996 RMK A01 T02230193  RH  083%=      5-min Rain = 0
KMC4 150634Z 12010KT 22/19 A2996 RMK A01 T02230193  RH  083%=      5-min Rain = 0
KMC4 150635Z 12009KT 22/19 A2996 RMK A01 T02230193  RH  083%=      5-min Rain = 0
KMC4 150636Z 12010KT 22/19 A2996 RMK A01 T02230192  RH  083%=      5-min Rain = 0
KMC4 150637Z 12011KT 22/19 A2996 RMK A01 T02230192  RH  083%=      5-min Rain = 0
KMC4 150638Z 12011KT 22/19 A2996 RMK A01 T02230192  RH  082%=      5-min Rain = 0
KMC4 150639Z 13011KT 22/19 A2996 RMK A01 T02240192  RH  082%=      5-min Rain = 0
KMC4 150640Z 13012KT 22/19 A2996 RMK A01 T02240192  RH  082%=      5-min Rain = 0
KMC4 150641Z 12010KT 22/19 A2996 RMK A01 T02240192  RH  082%=      5-min Rain = 0
KMC4 150642Z 13010KT 22/19 A2996 RMK A01 T02240192  RH  082%=      5-min Rain = 0
KMC4 150643Z 12009KT 22/19 A2996 RMK A01 T02240192  RH  082%=      5-min Rain = 0
KMC4 150644Z 12010KT 22/19 A2996 RMK A01 T02230191  RH  082%=      5-min Rain = 0
KMC4 150645Z 12009KT 22/19 A2996 RMK A01 T02230192  RH  082%=      5-min Rain = 0
KMC4 150646Z 12009KT 22/19 A2996 RMK A01 T02230192  RH  082%=      5-min Rain = 0
KMC4 150647Z 12009KT 22/19 A2996 RMK A01 T02230192  RH  082%=      5-min Rain = 0
KMC4 150648Z 12008KT 22/19 A2996 RMK A01 T02230192  RH  082%=      5-min Rain = 0
KMC4 150649Z 13011KT 22/19 A2996 RMK A01 T02230192  RH  082%=      5-min Rain = 0
KMC4 150650Z 13011KT 22/19 A2996 RMK A01 T02230192  RH  082%=      5-min Rain = 0
KMC4 150651Z 12010KT 22/19 A2996 RMK A01 T02230191  RH  082%=      5-min Rain = 0
KMC4 150652Z 13010KT 22/19 A2996 RMK A01 T02240192  RH  082%=      5-min Rain = 0
KMC4 150653Z 13009KT 22/19 A2996 RMK A01 T02240192  RH  082%=      5-min Rain = 0
KMC4 150654Z 13009KT 22/19 A2996 RMK A01 T02230191  RH  082%=      5-min Rain = 0
KMC4 150655Z 13010KT 22/19 A2996 RMK A01 T02230192  RH  082%=      5-min Rain = 0
KMC4 150656Z 13010KT 22/19 A2996 RMK A01 T02230192  RH  083%=      5-min Rain = 0
KMC4 150657Z 13010KT 22/19 A2996 RMK A01 T02230192  RH  083%=      5-min Rain = 0
KMC4 150658Z 13008KT 22/19 A2996 RMK A01 T02230192  RH  083%=      5-min Rain = 0
KMC4 150659Z 12009KT 22/19 A2996 RMK A01 T02230192  RH  083%=      5-min Rain = 0
KMC4 150700Z 12008KT 22/19 A2996 RMK A01 T02230192  RH  083%=      5-min Rain = 0
KMC4 150701Z 13008KT 22/19 A2996 RMK A01 T02230193  RH  083%=      5-min Rain = 0
KMC4 150702Z 12009KT 22/19 A2996 RMK A01 T02230193  RH  083%=      5-min Rain = 0
KMC4 150703Z 12009KT 22/19 A2996 RMK A01 T02230193  RH  083%=      5-min Rain = 0
KMC4 150704Z 12009KT 22/19 A2996 RMK A01 T02230193  RH  083%=      5-min Rain = 0
KMC4 150705Z 12009KT 22/19 A2996 RMK A01 T02230193  RH  083%=      5-min Rain = 0
KMC4 150706Z 12008KT 22/19 A2996 RMK A01 T02230193  RH  083%=      5-min Rain = 0
KMC4 150707Z 12009KT 22/19 A2996 RMK A01 T02230193  RH  083%=      5-min Rain = 0
KMC4 150708Z 12008KT 22/19 A2996 RMK A01 T02240194  RH  083%=      5-min Rain = 0
KMC4 150709Z 12007KT 22/19 A2996 RMK A01 T02240194  RH  083%=      5-min Rain = 0
KMC4 150710Z 12007KT 22/19 A2996 RMK A01 T02240194  RH  083%=      5-min Rain = 0
KMC4 150711Z 13008KT 22/19 A2996 RMK A01 T02240194  RH  083%=      5-min Rain = 0
KMC4 150712Z 12009KT 22/19 A2996 RMK A01 T02230194  RH  084%=      5-min Rain = 0
KMC4 150713Z 12010KT 22/20 A2996 RMK A01 T02240195  RH  084%=      5-min Rain = 0
KMC4 150714Z 12009KT 22/20 A2996 RMK A01 T02240195  RH  084%=      5-min Rain = 0
KMC4 150715Z 12008KT 23/20 A2996 RMK A01 T02250195  RH  083%=      5-min Rain = 0
KMC4 150716Z 12008KT 23/20 A2996 RMK A01 T02250195  RH  083%=      5-min Rain = 0
KMC4 150717Z 12008KT 23/20 A2996 RMK A01 T02250195  RH  083%=      5-min Rain = 0
KMC4 150718Z 13009KT 23/20 A2996 RMK A01 T02250195  RH  083%=      5-min Rain = 0
KMC4 150719Z 13009KT 23/20 A2996 RMK A01 T02250195  RH  083%=      5-min Rain = 0
KMC4 150720Z 13009KT 23/20 A2996 RMK A01 T02250196  RH  084%=      5-min Rain = 0
KMC4 150721Z 13009KT 23/20 A2996 RMK A01 T02250196  RH  084%=      5-min Rain = 0
KMC4 150722Z 12009KT 23/20 A2996 RMK A01 T02250196  RH  084%=      5-min Rain = 0
KMC4 150723Z 13009KT 23/20 A2996 RMK A01 T02250195  RH  084%=      5-min Rain = 0
KMC4 150724Z 13009KT 23/20 A2996 RMK A01 T02250195  RH  083%=      5-min Rain = 0
KMC4 150725Z 13009KT 23/20 A2996 RMK A01 T02250195  RH  084%=      5-min Rain = 0
KMC4 150726Z 13008KT 23/20 A2996 RMK A01 T02250196  RH  084%=      5-min Rain = 0
KMC4 150727Z 14009KT 23/20 A2996 RMK A01 T02250196  RH  084%=      5-min Rain = 0
KMC4 150728Z 13008KT 23/20 A2996 RMK A01 T02250196  RH  083%=      5-min Rain = 0
KMC4 150729Z 13007KT 23/20 A2995 RMK A01 T02250195  RH  083%=      5-min Rain = 0
KMC4 150730Z 13006KT 23/20 A2995 RMK A01 T02250196  RH  083%=      5-min Rain = 0
KMC4 150731Z 13006KT 23/20 A2995 RMK A01 T02250196  RH  083%=      5-min Rain = 0
KMC4 150732Z 14007KT 23/20 A2995 RMK A01 T02250195  RH  084%=      5-min Rain = 0
KMC4 150733Z 14008KT 23/20 A2995 RMK A01 T02250196  RH  084%=      5-min Rain = 0
KMC4 150734Z 14008KT 23/20 A2995 RMK A01 T02250196  RH  084%=      5-min Rain = 0
KMC4 150735Z 14007KT 23/20 A2995 RMK A01 T02250196  RH  084%=      5-min Rain = 0
KMC4 150736Z 14007KT 23/20 A2996 RMK A01 T02250196  RH  084%=      5-min Rain = 0
KMC4 150737Z 14006KT 23/20 A2996 RMK A01 T02250196  RH  084%=      5-min Rain = 0
KMC4 150738Z 13007KT 23/20 A2996 RMK A01 T02250196  RH  084%=      5-min Rain = 0
KMC4 150739Z 13008KT 23/20 A2996 RMK A01 T02250196  RH  084%=      5-min Rain = 0
KMC4 150740Z 13007KT 23/20 A2996 RMK A01 T02250196  RH  084%=      5-min Rain = 0
KMC4 150741Z 13007KT 23/20 A2996 RMK A01 T02250196  RH  084%=      5-min Rain = 0
KMC4 150742Z 13007KT 23/20 A2996 RMK A01 T02250196  RH  084%=      5-min Rain = 0
KMC4 150743Z 12007KT 23/20 A2996 RMK A01 T02250196  RH  084%=      5-min Rain = 0
KMC4 150744Z 12008KT 23/20 A2996 RMK A01 T02250196  RH  084%=      5-min Rain = 0
KMC4 150745Z 12007KT 23/20 A2996 RMK A01 T02250196  RH  084%=      5-min Rain = 0
KMC4 150746Z 13006KT 23/20 A2996 RMK A01 T02250196  RH  084%=      5-min Rain = 0
KMC4 150747Z 12007KT 23/20 A2996 RMK A01 T02250196  RH  084%=      5-min Rain = 0
KMC4 150748Z 12008KT 23/20 A2996 RMK A01 T02250196  RH  084%=      5-min Rain = 0
KMC4 150749Z 11007KT 23/20 A2996 RMK A01 T02250196  RH  084%=      5-min Rain = 0
KMC4 150750Z 12008KT 23/20 A2996 RMK A01 T02260197  RH  084%=      5-min Rain = 0
KMC4 150751Z 12008KT 23/20 A2996 RMK A01 T02260196  RH  084%=      5-min Rain = 0
KMC4 150752Z 12008KT 23/20 A2996 RMK A01 T02260197  RH  084%=      5-min Rain = 0
KMC4 150753Z 11008KT 23/20 A2996 RMK A01 T02260197  RH  083%=      5-min Rain = 0
KMC4 150754Z 12007KT 23/20 A2996 RMK A01 T02260196  RH  083%=      5-min Rain = 0
KMC4 150755Z 12008KT 23/20 A2996 RMK A01 T02260196  RH  083%=      5-min Rain = 0
KMC4 150756Z 12007KT 23/20 A2996 RMK A01 T02260196  RH  083%=      5-min Rain = 0
KMC4 150757Z 13008KT 23/20 A2996 RMK A01 T02260196  RH  083%=      5-min Rain = 0
KMC4 150758Z 12008KT 23/20 A2996 RMK A01 T02260196  RH  083%=      5-min Rain = 0
KMC4 150759Z 12008KT 23/20 A2996 RMK A01 T02260196  RH  083%=      5-min Rain = 0
KMC4 150800Z 11006KT 23/20 A2996 RMK A01 T02260197  RH  083%=      5-min Rain = 0
KMC4 150801Z 11006KT 23/20 A2996 RMK A01 T02260196  RH  083%=      5-min Rain = 0
KMC4 150802Z 11006KT 23/20 A2996 RMK A01 T02260196  RH  083%=      5-min Rain = 0
KMC4 150803Z 11007KT 23/20 A2996 RMK A01 T02260196  RH  083%=      5-min Rain = 0
KMC4 150804Z 11008KT 23/20 A2996 RMK A01 T02260196  RH  083%=      5-min Rain = 0
KMC4 150805Z 11007KT 23/20 A2996 RMK A01 T02260196  RH  083%=      5-min Rain = 0
KMC4 150806Z 11008KT 23/20 A2996 RMK A01 T02260196  RH  083%=      5-min Rain = 0
KMC4 150807Z 12009KT 23/20 A2996 RMK A01 T02260196  RH  083%=      5-min Rain = 0
KMC4 150808Z 12010KT 23/20 A2996 RMK A01 T02260196  RH  083%=      5-min Rain = 0
KMC4 150809Z 12008KT 23/20 A2995 RMK A01 T02260195  RH  083%=      5-min Rain = 0
KMC4 150810Z 12007KT 23/20 A2995 RMK A01 T02260195  RH  083%=      5-min Rain = 0
KMC4 150811Z 12006KT 23/20 A2995 RMK A01 T02260195  RH  083%=      5-min Rain = 0
KMC4 150812Z 13008KT 23/20 A2995 RMK A01 T02260195  RH  083%=      5-min Rain = 0
KMC4 150813Z 12009KT 23/20 A2995 RMK A01 T02260195  RH  083%=      5-min Rain = 0
KMC4 150814Z 12010KT 23/20 A2995 RMK A01 T02260195  RH  083%=      5-min Rain = 0
KMC4 150815Z 13010KT 23/19 A2995 RMK A01 T02250194  RH  083%=      5-min Rain = 0
KMC4 150816Z 12010KT 23/19 A2995 RMK A01 T02250194  RH  083%=      5-min Rain = 0
KMC4 150817Z 12010KT 23/19 A2995 RMK A01 T02250194  RH  083%=      5-min Rain = 0
KMC4 150818Z 12010KT 23/19 A2995 RMK A01 T02250194  RH  083%=      5-min Rain = 0
KMC4 150819Z 12010KT 23/19 A2995 RMK A01 T02250194  RH  083%=      5-min Rain = 0
KMC4 150820Z 12008KT 23/19 A2995 RMK A01 T02250194  RH  083%=      5-min Rain = 0
KMC4 150821Z 11008KT 22/19 A2995 RMK A01 T02240194  RH  083%=      5-min Rain = 0
KMC4 150822Z 13009KT 22/19 A2995 RMK A01 T02240193  RH  083%=      5-min Rain = 0
KMC4 150823Z 12008KT 22/19 A2995 RMK A01 T02240193  RH  083%=      5-min Rain = 0
KMC4 150824Z 12009KT 22/19 A2995 RMK A01 T02240193  RH  083%=      5-min Rain = 0
KMC4 150825Z 12009KT 22/19 A2995 RMK A01 T02240193  RH  083%=      5-min Rain = 0
KMC4 150826Z 12010KT 22/19 A2995 RMK A01 T02240193  RH  083%=      5-min Rain = 0
KMC4 150827Z 12008KT 22/19 A2995 RMK A01 T02240193  RH  083%=      5-min Rain = 0
KMC4 150828Z 11008KT 22/19 A2995 RMK A01 T02240193  RH  083%=      5-min Rain = 0
KMC4 150829Z 11009KT 22/19 A2995 RMK A01 T02230192  RH  083%=      5-min Rain = 0
KMC4 150830Z 12009KT 22/19 A2995 RMK A01 T02230192  RH  083%=      5-min Rain = 0
KMC4 150831Z 11007KT 22/19 A2995 RMK A01 T02230192  RH  083%=      5-min Rain = 0
KMC4 150832Z 11007KT 22/19 A2995 RMK A01 T02230192  RH  083%=      5-min Rain = 0
KMC4 150833Z 11009KT 22/19 A2995 RMK A01 T02230192  RH  083%=      5-min Rain = 0
KMC4 150834Z 11007KT 22/19 A2995 RMK A01 T02220192  RH  083%=      5-min Rain = 0
KMC4 150835Z 11007KT 22/19 A2995 RMK A01 T02220192  RH  083%=      5-min Rain = 0
KMC4 150836Z 11008KT 22/19 A2995 RMK A01 T02230192  RH  083%=      5-min Rain = 0
KMC4 150837Z 10007KT 22/19 A2995 RMK A01 T02220192  RH  083%=      5-min Rain = 0
KMC4 150838Z 10006KT 22/19 A2995 RMK A01 T02220192  RH  083%=      5-min Rain = 0
KMC4 150839Z 11007KT 22/19 A2995 RMK A01 T02220192  RH  083%=      5-min Rain = 0
KMC4 150840Z 11007KT 22/19 A2995 RMK A01 T02220192  RH  083%=      5-min Rain = 0
KMC4 150841Z 10007KT 22/19 A2995 RMK A01 T02220192  RH  083%=      5-min Rain = 0
KMC4 150842Z 10008KT 22/19 A2995 RMK A01 T02220191  RH  083%=      5-min Rain = 0
KMC4 150843Z 11007KT 22/19 A2995 RMK A01 T02210191  RH  083%=      5-min Rain = 0
KMC4 150844Z 11007KT 22/19 A2995 RMK A01 T02210191  RH  083%=      5-min Rain = 0
KMC4 150845Z 12007KT 22/19 A2995 RMK A01 T02210191  RH  083%=      5-min Rain = 0
KMC4 150846Z 12008KT 22/19 A2995 RMK A01 T02210191  RH  083%=      5-min Rain = 0
KMC4 150847Z 12008KT 22/19 A2995 RMK A01 T02210191  RH  083%=      5-min Rain = 0
KMC4 150848Z 12007KT 22/19 A2995 RMK A01 T02210191  RH  083%=      5-min Rain = 0
KMC4 150849Z 12008KT 22/19 A2995 RMK A01 T02210191  RH  083%=      5-min Rain = 0
KMC4 150850Z 12009KT 22/19 A2995 RMK A01 T02210191  RH  084%=      5-min Rain = 0
KMC4 150851Z 12008KT 22/19 A2995 RMK A01 T02200191  RH  083%=      5-min Rain = 0
KMC4 150852Z 13007KT 22/19 A2995 RMK A01 T02210191  RH  083%=      5-min Rain = 0
KMC4 150853Z 13008KT 22/19 A2995 RMK A01 T02210191  RH  083%=      5-min Rain = 0
KMC4 150854Z 13008KT 22/19 A2995 RMK A01 T02200191  RH  083%=      5-min Rain = 0
KMC4 150855Z 13008KT 22/19 A2995 RMK A01 T02200191  RH  084%=      5-min Rain = 0
KMC4 150856Z 13007KT 22/19 A2995 RMK A01 T02200191  RH  084%=      5-min Rain = 0
KMC4 150857Z 13008KT 22/19 A2995 RMK A01 T02200191  RH  084%=      5-min Rain = 0
KMC4 150858Z 12009KT 22/19 A2994 RMK A01 T02190191  RH  084%=      5-min Rain = 0
KMC4 150859Z 12008KT 22/19 A2995 RMK A01 T02200191  RH  084%=      5-min Rain = 0
KMC4 150900Z 12009KT 22/19 A2994 RMK A01 T02200191  RH  084%=      5-min Rain = 0
KMC4 150901Z 12008KT 22/19 A2994 RMK A01 T02200191  RH  084%=      5-min Rain = 0
KMC4 150902Z 12009KT 22/19 A2994 RMK A01 T02200191  RH  084%=      5-min Rain = 0
KMC4 150903Z 11007KT 22/19 A2994 RMK A01 T02200191  RH  084%=      5-min Rain = 0
KMC4 150904Z 12007KT 22/19 A2994 RMK A01 T02200191  RH  084%=      5-min Rain = 0
KMC4 150905Z 12007KT 22/19 A2994 RMK A01 T02200191  RH  084%=      5-min Rain = 0
KMC4 150906Z 12009KT 22/19 A2994 RMK A01 T02200191  RH  084%=      5-min Rain = 0
KMC4 150907Z 13008KT 22/19 A2994 RMK A01 T02200191  RH  084%=      5-min Rain = 0
KMC4 150908Z 13007KT 22/19 A2994 RMK A01 T02200191  RH  084%=      5-min Rain = 0
KMC4 150909Z 13009KT 22/19 A2994 RMK A01 T02200191  RH  083%=      5-min Rain = 0
KMC4 150910Z 13008KT 22/19 A2994 RMK A01 T02200191  RH  084%=      5-min Rain = 0
KMC4 150911Z 13007KT 22/19 A2994 RMK A01 T02200191  RH  083%=      5-min Rain = 0
KMC4 150912Z 13006KT 22/19 A2994 RMK A01 T02200191  RH  083%=      5-min Rain = 0
KMC4 150913Z 13007KT 22/19 A2994 RMK A01 T02200190  RH  083%=      5-min Rain = 0
KMC4 150914Z 13008KT 22/19 A2994 RMK A01 T02190190  RH  084%=      5-min Rain = 0
KMC4 150915Z 13008KT 22/19 A2994 RMK A01 T02190190  RH  084%=      5-min Rain = 0
KMC4 150916Z 13008KT 22/19 A2994 RMK A01 T02190190  RH  084%=      5-min Rain = 0
KMC4 150917Z 13009KT 22/19 A2994 RMK A01 T02190190  RH  084%=      5-min Rain = 0
KMC4 150918Z 13009KT 22/19 A2994 RMK A01 T02190190  RH  084%=      5-min Rain = 0
KMC4 150919Z 13008KT 22/19 A2994 RMK A01 T02190190  RH  084%=      5-min Rain = 0
KMC4 150920Z 13008KT 22/19 A2994 RMK A01 T02190190  RH  083%=      5-min Rain = 0
KMC4 150921Z 13008KT 22/19 A2994 RMK A01 T02190190  RH  084%=      5-min Rain = 0
KMC4 150922Z 13008KT 22/19 A2994 RMK A01 T02180189  RH  084%=      5-min Rain = 0
KMC4 150923Z 13008KT 22/19 A2994 RMK A01 T02190190  RH  084%=      5-min Rain = 0
KMC4 150924Z 13007KT 22/19 A2994 RMK A01 T02180189  RH  084%=      5-min Rain = 0
KMC4 150925Z 12008KT 22/19 A2994 RMK A01 T02180189  RH  084%=      5-min Rain = 0
KMC4 150926Z 12008KT 22/19 A2994 RMK A01 T02180190  RH  084%=      5-min Rain = 0
KMC4 150927Z 12008KT 22/19 A2994 RMK A01 T02180189  RH  083%=      5-min Rain = 0
KMC4 150928Z 12008KT 22/19 A2994 RMK A01 T02190189  RH  083%=      5-min Rain = 0
KMC4 150929Z 12007KT 22/19 A2994 RMK A01 T02190189  RH  083%=      5-min Rain = 0
KMC4 150930Z 12006KT 22/19 A2994 RMK A01 T02190189  RH  083%=      5-min Rain = 0
KMC4 150931Z 12007KT 22/19 A2994 RMK A01 T02180189  RH  083%=      5-min Rain = 0
KMC4 150932Z 12008KT 22/19 A2994 RMK A01 T02180188  RH  083%=      5-min Rain = 0
KMC4 150933Z 12006KT 22/19 A2994 RMK A01 T02180188  RH  083%=      5-min Rain = 0
KMC4 150934Z 12008KT 22/19 A2994 RMK A01 T02180188  RH  083%=      5-min Rain = 0
KMC4 150935Z 12009KT 22/19 A2994 RMK A01 T02180188  RH  083%=      5-min Rain = 0
KMC4 150936Z 13009KT 22/19 A2994 RMK A01 T02180187  RH  083%=      5-min Rain = 0
KMC4 150937Z 12008KT 22/19 A2994 RMK A01 T02180187  RH  083%=      5-min Rain = 0
KMC4 150938Z 13008KT 22/19 A2994 RMK A01 T02180187  RH  083%=      5-min Rain = 0
KMC4 150939Z 13009KT 22/19 A2994 RMK A01 T02190187  RH  082%=      5-min Rain = 0
KMC4 150940Z 12008KT 22/19 A2994 RMK A01 T02180187  RH  082%=      5-min Rain = 0
KMC4 150941Z 13007KT 22/19 A2994 RMK A01 T02180187  RH  083%=      5-min Rain = 0
KMC4 150942Z 13008KT 22/19 A2994 RMK A01 T02170187  RH  083%=      5-min Rain = 0
KMC4 150943Z 13008KT 22/19 A2994 RMK A01 T02170186  RH  083%=      5-min Rain = 0
KMC4 150944Z 13009KT 22/19 A2994 RMK A01 T02170186  RH  083%=      5-min Rain = 0
KMC4 150945Z 12007KT 22/19 A2994 RMK A01 T02170186  RH  083%=      5-min Rain = 0
KMC4 150946Z 13007KT 22/19 A2994 RMK A01 T02170186  RH  083%=      5-min Rain = 0
KMC4 150947Z 12008KT 22/19 A2994 RMK A01 T02160186  RH  083%=      5-min Rain = 0
KMC4 150948Z 12007KT 22/19 A2994 RMK A01 T02160186  RH  083%=      5-min Rain = 0
KMC4 150949Z 12007KT 22/19 A2994 RMK A01 T02160186  RH  083%=      5-min Rain = 0
KMC4 150950Z 12007KT 22/19 A2994 RMK A01 T02160186  RH  083%=      5-min Rain = 0
KMC4 150951Z 11006KT 22/19 A2994 RMK A01 T02160185  RH  083%=      5-min Rain = 0
KMC4 150952Z 11007KT 22/19 A2994 RMK A01 T02160185  RH  083%=      5-min Rain = 0
KMC4 150953Z 11007KT 22/19 A2993 RMK A01 T02160185  RH  083%=      5-min Rain = 0
KMC4 150954Z 12008KT 22/19 A2993 RMK A01 T02160185  RH  083%=      5-min Rain = 0
KMC4 150955Z 11007KT 22/19 A2993 RMK A01 T02160185  RH  083%=      5-min Rain = 0
KMC4 150956Z 11006KT 22/19 A2993 RMK A01 T02160185  RH  082%=      5-min Rain = 0
KMC4 150957Z 11006KT 22/19 A2993 RMK A01 T02160185  RH  083%=      5-min Rain = 0
KMC4 150958Z 12007KT 22/19 A2993 RMK A01 T02160185  RH  082%=      5-min Rain = 0
KMC4 150959Z 11006KT 22/19 A2993 RMK A01 T02160185  RH  083%=      5-min Rain = 0
KMC4 151000Z 11007KT 22/19 A2993 RMK A01 T02150185  RH  083%=      5-min Rain = 0
KMC4 151001Z 11007KT 22/18 A2993 RMK A01 T02150184  RH  083%=      5-min Rain = 0
KMC4 151002Z 11006KT 22/18 A2993 RMK A01 T02150184  RH  083%=      5-min Rain = 0
KMC4 151003Z 11006KT 22/18 A2993 RMK A01 T02150184  RH  083%=      5-min Rain = 0
KMC4 151004Z 10007KT 21/18 A2993 RMK A01 T02140184  RH  083%=      5-min Rain = 0
KMC4 151005Z 11007KT 21/18 A2993 RMK A01 T02140184  RH  083%=      5-min Rain = 0
KMC4 151006Z 11006KT 21/18 A2993 RMK A01 T02140183  RH  083%=      5-min Rain = 0
KMC4 151007Z 11007KT 21/18 A2993 RMK A01 T02140183  RH  083%=      5-min Rain = 0
KMC4 151008Z 10006KT 21/18 A2993 RMK A01 T02140183  RH  083%=      5-min Rain = 0
KMC4 151009Z 11006KT 21/18 A2993 RMK A01 T02140183  RH  083%=      5-min Rain = 0
KMC4 151010Z 10005KT 21/18 A2993 RMK A01 T02140183  RH  083%=      5-min Rain = 0
KMC4 151011Z 10005KT 21/18 A2993 RMK A01 T02140183  RH  083%=      5-min Rain = 0
KMC4 151012Z 11007KT 21/18 A2993 RMK A01 T02130182  RH  083%=      5-min Rain = 0
KMC4 151013Z 11006KT 21/18 A2994 RMK A01 T02130183  RH  083%=      5-min Rain = 0
KMC4 151014Z 11004KT 21/18 A2994 RMK A01 T02130183  RH  083%=      5-min Rain = 0
KMC4 151015Z 11004KT 21/18 A2994 RMK A01 T02130182  RH  083%=      5-min Rain = 0
KMC4 151016Z 11004KT 21/18 A2994 RMK A01 T02130182  RH  083%=      5-min Rain = 0
KMC4 151017Z 12004KT 21/18 A2994 RMK A01 T02130182  RH  083%=      5-min Rain = 0
KMC4 151018Z 13004KT 21/18 A2994 RMK A01 T02130182  RH  083%=      5-min Rain = 0
KMC4 151019Z 13004KT 21/18 A2994 RMK A01 T02130182  RH  083%=      5-min Rain = 0
KMC4 151020Z 12004KT 21/18 A2994 RMK A01 T02130182  RH  083%=      5-min Rain = 0
KMC4 151021Z 13003KT 21/18 A2994 RMK A01 T02120181  RH  082%=      5-min Rain = 0
KMC4 151022Z 13004KT 21/18 A2994 RMK A01 T02120181  RH  083%=      5-min Rain = 0
KMC4 151023Z 13005KT 21/18 A2994 RMK A01 T02110181  RH  083%=      5-min Rain = 0
KMC4 151024Z 13005KT 21/18 A2994 RMK A01 T02110181  RH  083%=      5-min Rain = 0
KMC4 151025Z 13006KT 21/18 A2994 RMK A01 T02100180  RH  083%=      5-min Rain = 0
KMC4 151026Z 12006KT 21/18 A2994 RMK A01 T02100181  RH  083%=      5-min Rain = 0
KMC4 151027Z 13006KT 21/18 A2994 RMK A01 T02100181  RH  083%=      5-min Rain = 0
KMC4 151028Z 13005KT 21/18 A2994 RMK A01 T02100181  RH  083%=      5-min Rain = 0
KMC4 151029Z 13005KT 21/18 A2994 RMK A01 T02100181  RH  083%=      5-min Rain = 0
KMC4 151030Z 13005KT 21/18 A2994 RMK A01 T02100181  RH  084%=      5-min Rain = 0
KMC4 151031Z 13003KT 21/18 A2994 RMK A01 T02090181  RH  084%=      5-min Rain = 0
KMC4 151032Z 13004KT 21/18 A2994 RMK A01 T02090181  RH  084%=      5-min Rain = 0
KMC4 151033Z 13003KT 21/18 A2994 RMK A01 T02090180  RH  084%=      5-min Rain = 0
KMC4 151034Z 13003KT 21/18 A2994 RMK A01 T02090180  RH  084%=      5-min Rain = 0
KMC4 151035Z 13003KT 21/18 A2994 RMK A01 T02080180  RH  084%=      5-min Rain = 0
KMC4 151036Z 13003KT 21/18 A2994 RMK A01 T02090180  RH  084%=      5-min Rain = 0
KMC4 151037Z 13003KT 21/18 A2994 RMK A01 T02080180  RH  084%=      5-min Rain = 0
KMC4 151038Z 13003KT 21/18 A2994 RMK A01 T02080180  RH  084%=      5-min Rain = 0
KMC4 151039Z 13002KT 21/18 A2994 RMK A01 T02070180  RH  084%=      5-min Rain = 0
KMC4 151040Z 14003KT 21/18 A2994 RMK A01 T02070180  RH  084%=      5-min Rain = 0
KMC4 151041Z 14003KT 21/18 A2994 RMK A01 T02070180  RH  084%=      5-min Rain = 0
KMC4 151042Z 13002KT 21/18 A2994 RMK A01 T02060179  RH  084%=      5-min Rain = 0
KMC4 151043Z 13003KT 21/18 A2994 RMK A01 T02060179  RH  085%=      5-min Rain = 0
KMC4 151044Z 13002KT 21/18 A2994 RMK A01 T02060180  RH  085%=      5-min Rain = 0
KMC4 151045Z 13003KT 21/18 A2994 RMK A01 T02050179  RH  085%=      5-min Rain = 0
KMC4 151046Z 12003KT 21/18 A2994 RMK A01 T02060180  RH  085%=      5-min Rain = 0
KMC4 151047Z 13003KT 21/18 A2994 RMK A01 T02050180  RH  085%=      5-min Rain = 0
KMC4 151048Z 12003KT 21/18 A2994 RMK A01 T02050179  RH  085%=      5-min Rain = 0
KMC4 151049Z 12003KT 21/18 A2994 RMK A01 T02050179  RH  085%=      5-min Rain = 0
KMC4 151050Z 12003KT 21/18 A2994 RMK A01 T02050180  RH  085%=      5-min Rain = 0
KMC4 151051Z 12003KT 21/18 A2994 RMK A01 T02050180  RH  086%=      5-min Rain = 0
KMC4 151052Z 11003KT 21/18 A2994 RMK A01 T02050180  RH  086%=      5-min Rain = 0
KMC4 151053Z 11003KT 21/18 A2995 RMK A01 T02050180  RH  086%=      5-min Rain = 0
KMC4 151054Z 11003KT 21/18 A2995 RMK A01 T02050180  RH  086%=      5-min Rain = 0
KMC4 151055Z 11003KT 21/18 A2995 RMK A01 T02060181  RH  085%=      5-min Rain = 0
KMC4 151056Z 12003KT 21/18 A2995 RMK A01 T02060181  RH  085%=      5-min Rain = 0
KMC4 151057Z 12002KT 21/18 A2995 RMK A01 T02060181  RH  085%=      5-min Rain = 0
KMC4 151058Z 13002KT 21/18 A2995 RMK A01 T02070181  RH  085%=      5-min Rain = 0
KMC4 151059Z 15002KT 21/18 A2995 RMK A01 T02070180  RH  085%=      5-min Rain = 0
KMC4 151100Z 15002KT 21/18 A2995 RMK A01 T02070181  RH  085%=      5-min Rain = 0
KMC4 151101Z 17001KT 21/18 A2995 RMK A01 T02070181  RH  085%=      5-min Rain = 0
KMC4 151102Z 17001KT 21/18 A2995 RMK A01 T02070180  RH  085%=      5-min Rain = 0
KMC4 151103Z 14001KT 21/18 A2995 RMK A01 T02070180  RH  085%=      5-min Rain = 0
KMC4 151104Z 15001KT 21/18 A2995 RMK A01 T02070180  RH  085%=      5-min Rain = 0
KMC4 151105Z 14001KT 21/18 A2995 RMK A01 T02060180  RH  085%=      5-min Rain = 0
KMC4 151106Z 14001KT 21/18 A2995 RMK A01 T02060180  RH  085%=      5-min Rain = 0
KMC4 151107Z 12001KT 21/18 A2995 RMK A01 T02060180  RH  085%=      5-min Rain = 0
KMC4 151108Z 12001KT 21/18 A2995 RMK A01 T02060181  RH  086%=      5-min Rain = 0
KMC4 151109Z 11002KT 21/18 A2994 RMK A01 T02060181  RH  086%=      5-min Rain = 0
KMC4 151110Z 11002KT 21/18 A2994 RMK A01 T02060181  RH  086%=      5-min Rain = 0
KMC4 151111Z 11003KT 21/18 A2994 RMK A01 T02060181  RH  086%=      5-min Rain = 0
KMC4 151112Z 12002KT 21/18 A2994 RMK A01 T02060181  RH  086%=      5-min Rain = 0
KMC4 151113Z 12002KT 21/18 A2994 RMK A01 T02060181  RH  085%=      5-min Rain = 0
KMC4 151114Z 13001KT 21/18 A2994 RMK A01 T02050180  RH  085%=      5-min Rain = 0
KMC4 151115Z 15001KT 21/18 A2995 RMK A01 T02050180  RH  085%=      5-min Rain = 0
KMC4 151116Z 17001KT 21/18 A2995 RMK A01 T02050179  RH  085%=      5-min Rain = 0
KMC4 151117Z 17001KT 20/18 A2995 RMK A01 T02040180  RH  086%=      5-min Rain = 0
KMC4 151118Z 16001KT 20/18 A2994 RMK A01 T02040180  RH  086%=      5-min Rain = 0
KMC4 151119Z 16002KT 20/18 A2994 RMK A01 T02040181  RH  086%=      5-min Rain = 0
KMC4 151120Z 16002KT 20/18 A2994 RMK A01 T02040180  RH  086%=      5-min Rain = 0
KMC4 151121Z 15003KT 20/18 A2994 RMK A01 T02040180  RH  086%=      5-min Rain = 0
KMC4 151122Z 15003KT 20/18 A2994 RMK A01 T02040179  RH  086%=      5-min Rain = 0
KMC4 151123Z 14003KT 20/18 A2994 RMK A01 T02030179  RH  086%=      5-min Rain = 0
KMC4 151124Z 15003KT 20/18 A2994 RMK A01 T02030178  RH  086%=      5-min Rain = 0
KMC4 151125Z 16003KT 20/18 A2994 RMK A01 T02020178  RH  086%=      5-min Rain = 0
KMC4 151126Z 16002KT 20/18 A2994 RMK A01 T02010176  RH  086%=      5-min Rain = 0
KMC4 151127Z 17002KT 20/18 A2994 RMK A01 T02010177  RH  086%=      5-min Rain = 0
KMC4 151128Z 21001KT 20/18 A2994 RMK A01 T01990175  RH  086%=      5-min Rain = 0
KMC4 151129Z 22001KT 20/18 A2994 RMK A01 T01980175  RH  087%=      5-min Rain = 0
KMC4 151130Z 24001KT 20/18 A2994 RMK A01 T01970176  RH  087%=      5-min Rain = 0
KMC4 151131Z 22000KT 20/18 A2994 RMK A01 T01970176  RH  088%=      5-min Rain = 0
KMC4 151132Z 00000KT 20/18 A2994 RMK A01 T01970177  RH  088%=      5-min Rain = 0
KMC4 151133Z 00000KT 20/18 A2994 RMK A01 T01970177  RH  089%=      5-min Rain = 0
KMC4 151134Z 04000KT 20/18 A2994 RMK A01 T01960177  RH  089%=      5-min Rain = 0
KMC4 151135Z 04001KT 20/18 A2994 RMK A01 T01960176  RH  089%=      5-min Rain = 0
KMC4 151136Z 04002KT 20/18 A2994 RMK A01 T01950176  RH  089%=      5-min Rain = 0
KMC4 151137Z 02002KT 20/18 A2994 RMK A01 T01950176  RH  089%=      5-min Rain = 0
KMC4 151138Z 01002KT 20/18 A2994 RMK A01 T01950177  RH  089%=      5-min Rain = 0
KMC4 151139Z 00003KT 20/18 A2994 RMK A01 T01960179  RH  090%=      5-min Rain = 0
KMC4 151140Z 35002KT 20/18 A2994 RMK A01 T01970179  RH  089%=      5-min Rain = 0
KMC4 151141Z 34003KT 20/18 A2994 RMK A01 T01980178  RH  088%=      5-min Rain = 0
KMC4 151142Z 33004KT 20/18 A2994 RMK A01 T01980178  RH  088%=      5-min Rain = 0
KMC4 151143Z 33003KT 20/18 A2995 RMK A01 T01980178  RH  088%=      5-min Rain = 0
KMC4 151144Z 34003KT 20/18 A2995 RMK A01 T01980178  RH  088%=      5-min Rain = 0
KMC4 151145Z 01001KT 20/18 A2995 RMK A01 T01980179  RH  089%=      5-min Rain = 0
KMC4 151146Z 04001KT 20/18 A2995 RMK A01 T01990180  RH  089%=      5-min Rain = 0
KMC4 151147Z 08002KT 20/18 A2994 RMK A01 T02000181  RH  089%=      5-min Rain = 0
KMC4 151148Z 08002KT 20/18 A2994 RMK A01 T02000180  RH  088%=      5-min Rain = 0
KMC4 151149Z 08002KT 20/18 A2994 RMK A01 T02010180  RH  088%=      5-min Rain = 0
KMC4 151150Z 09002KT 20/18 A2994 RMK A01 T02010179  RH  087%=      5-min Rain = 0
KMC4 151151Z 10001KT 20/18 A2994 RMK A01 T02000179  RH  087%=      5-min Rain = 0
KMC4 151152Z 10002KT 20/18 A2995 RMK A01 T02000179  RH  087%=      5-min Rain = 0
KMC4 151153Z 10001KT 20/18 A2995 RMK A01 T02000179  RH  088%=      5-min Rain = 0
KMC4 151154Z 09000KT 20/18 A2995 RMK A01 T01990179  RH  088%=      5-min Rain = 0
KMC4 151155Z 06001KT 20/18 A2995 RMK A01 T01990179  RH  088%=      5-min Rain = 0
KMC4 151156Z 08001KT 20/18 A2995 RMK A01 T01990180  RH  088%=      5-min Rain = 0
KMC4 151157Z 08001KT 20/18 A2995 RMK A01 T02000180  RH  088%=      5-min Rain = 0
KMC4 151158Z 09002KT 20/18 A2995 RMK A01 T02000182  RH  089%=      5-min Rain = 0
KMC4 151159Z 10002KT 20/18 A2995 RMK A01 T02010182  RH  089%=      5-min Rain = 0
KMC4 151200Z 11002KT 20/18 A2995 RMK A01 T02020182  RH  089%=      5-min Rain = 0
KMC4 151201Z 09002KT 20/18 A2995 RMK A01 T02030184  RH  089%=      5-min Rain = 0
KMC4 151202Z 13001KT 20/18 A2995 RMK A01 T02040184  RH  089%=      5-min Rain = 0
KMC4 151203Z 00000KT 20/19 A2995 RMK A01 T02040185  RH  088%=      5-min Rain = 0
KMC4 151204Z 00000KT 20/19 A2995 RMK A01 T02040185  RH  088%=      5-min Rain = 0
KMC4 151205Z 11001KT 21/19 A2995 RMK A01 T02050185  RH  088%=      5-min Rain = 0
KMC4 151206Z 13002KT 21/19 A2995 RMK A01 T02050185  RH  088%=      5-min Rain = 0
KMC4 151207Z 12002KT 21/18 A2995 RMK A01 T02060184  RH  088%=      5-min Rain = 0
KMC4 151208Z 12003KT 21/18 A2995 RMK A01 T02060184  RH  087%=      5-min Rain = 0
KMC4 151209Z 13003KT 21/18 A2995 RMK A01 T02060183  RH  087%=      5-min Rain = 0
KMC4 151210Z 12003KT 21/18 A2995 RMK A01 T02060182  RH  086%=      5-min Rain = 0
KMC4 151211Z 13004KT 21/18 A2995 RMK A01 T02050182  RH  086%=      5-min Rain = 0
KMC4 151212Z 14003KT 21/18 A2995 RMK A01 T02050182  RH  087%=      5-min Rain = 0
KMC4 151213Z 14003KT 21/18 A2995 RMK A01 T02050182  RH  087%=      5-min Rain = 0
KMC4 151214Z 13002KT 21/18 A2995 RMK A01 T02050182  RH  087%=      5-min Rain = 0
KMC4 151215Z 12002KT 21/18 A2995 RMK A01 T02050182  RH  087%=      5-min Rain = 0
KMC4 151216Z 12002KT 21/18 A2995 RMK A01 T02050182  RH  087%=      5-min Rain = 0
KMC4 151217Z 11002KT 21/18 A2995 RMK A01 T02050183  RH  087%=      5-min Rain = 0
KMC4 151218Z 10003KT 21/18 A2995 RMK A01 T02050183  RH  087%=      5-min Rain = 0
KMC4 151219Z 11003KT 21/18 A2995 RMK A01 T02060183  RH  087%=      5-min Rain = 0
KMC4 151220Z 11003KT 21/18 A2995 RMK A01 T02060183  RH  087%=      5-min Rain = 0
KMC4 151221Z 11003KT 21/18 A2995 RMK A01 T02060184  RH  087%=      5-min Rain = 0
KMC4 151222Z 11003KT 21/18 A2995 RMK A01 T02060184  RH  087%=      5-min Rain = 0
KMC4 151223Z 11003KT 21/18 A2995 RMK A01 T02070184  RH  087%=      5-min Rain = 0
KMC4 151224Z 11002KT 21/18 A2995 RMK A01 T02070184  RH  087%=      5-min Rain = 0
KMC4 151225Z 10002KT 21/18 A2996 RMK A01 T02070184  RH  086%=      5-min Rain = 0
KMC4 151226Z 09002KT 21/18 A2996 RMK A01 T02070184  RH  086%=      5-min Rain = 0
KMC4 151227Z 08003KT 21/18 A2996 RMK A01 T02080183  RH  086%=      5-min Rain = 0
KMC4 151228Z 08003KT 21/18 A2996 RMK A01 T02080184  RH  086%=      5-min Rain = 0
KMC4 151229Z 08003KT 21/18 A2996 RMK A01 T02080184  RH  086%=      5-min Rain = 0
KMC4 151230Z 07003KT 21/18 A2996 RMK A01 T02080184  RH  086%=      5-min Rain = 0
KMC4 151231Z 07002KT 21/18 A2996 RMK A01 T02090184  RH  086%=      5-min Rain = 0
KMC4 151232Z 06002KT 21/18 A2996 RMK A01 T02090184  RH  086%=      5-min Rain = 0
KMC4 151233Z 04001KT 21/18 A2996 RMK A01 T02090184  RH  086%=      5-min Rain = 0
KMC4 151234Z 07001KT 21/18 A2996 RMK A01 T02100184  RH  085%=      5-min Rain = 0
KMC4 151235Z 09001KT 21/18 A2996 RMK A01 T02110184  RH  085%=      5-min Rain = 0
KMC4 151236Z 09003KT 21/18 A2996 RMK A01 T02120184  RH  084%=      5-min Rain = 0
KMC4 151237Z 08003KT 21/18 A2996 RMK A01 T02120184  RH  084%=      5-min Rain = 0
KMC4 151238Z 08003KT 21/18 A2996 RMK A01 T02120184  RH  084%=      5-min Rain = 0
KMC4 151239Z 08003KT 21/18 A2996 RMK A01 T02110184  RH  084%=      5-min Rain = 0
KMC4 151240Z 08003KT 21/18 A2996 RMK A01 T02110184  RH  084%=      5-min Rain = 0
KMC4 151241Z 08003KT 21/18 A2996 RMK A01 T02110184  RH  084%=      5-min Rain = 0
KMC4 151242Z 09003KT 21/18 A2996 RMK A01 T02110184  RH  084%=      5-min Rain = 0
KMC4 151243Z 09003KT 21/19 A2996 RMK A01 T02120185  RH  084%=      5-min Rain = 0
KMC4 151244Z 09003KT 21/18 A2996 RMK A01 T02120184  RH  084%=      5-min Rain = 0
KMC4 151245Z 10004KT 21/19 A2996 RMK A01 T02130185  RH  084%=      5-min Rain = 0
KMC4 151246Z 10004KT 21/18 A2996 RMK A01 T02120184  RH  084%=      5-min Rain = 0
KMC4 151247Z 10003KT 21/19 A2996 RMK A01 T02130185  RH  084%=      5-min Rain = 0
KMC4 151248Z 11003KT 21/19 A2996 RMK A01 T02130185  RH  084%=      5-min Rain = 0
KMC4 151249Z 10003KT 21/18 A2996 RMK A01 T02130184  RH  084%=      5-min Rain = 0
KMC4 151250Z 11004KT 21/19 A2996 RMK A01 T02140185  RH  083%=      5-min Rain = 0
KMC4 151251Z 10004KT 21/18 A2996 RMK A01 T02140184  RH  083%=      5-min Rain = 0
KMC4 151252Z 10004KT 22/18 A2996 RMK A01 T02150184  RH  083%=      5-min Rain = 0
KMC4 151253Z 10003KT 21/18 A2996 RMK A01 T02140184  RH  083%=      5-min Rain = 0
KMC4 151254Z 11003KT 21/18 A2996 RMK A01 T02140184  RH  083%=      5-min Rain = 0
KMC4 151255Z 12002KT 21/18 A2996 RMK A01 T02140184  RH  083%=      5-min Rain = 0
KMC4 151256Z 10002KT 22/18 A2996 RMK A01 T02150184  RH  083%=      5-min Rain = 0
KMC4 151257Z 08002KT 22/19 A2996 RMK A01 T02150185  RH  083%=      5-min Rain = 0
KMC4 151258Z 08002KT 22/19 A2996 RMK A01 T02160185  RH  082%=      5-min Rain = 0
KMC4 151259Z 10002KT 22/19 A2996 RMK A01 T02160185  RH  082%=      5-min Rain = 0
KMC4 151300Z 11003KT 22/18 A2996 RMK A01 T02170184  RH  082%=      5-min Rain = 0
KMC4 151301Z 11003KT 22/18 A2996 RMK A01 T02170184  RH  081%=      5-min Rain = 0
KMC4 151302Z 11003KT 22/18 A2996 RMK A01 T02170183  RH  081%=      5-min Rain = 0
KMC4 151303Z 12004KT 22/18 A2996 RMK A01 T02180184  RH  081%=      5-min Rain = 0
KMC4 151304Z 14003KT 22/18 A2996 RMK A01 T02180184  RH  081%=      5-min Rain = 0
KMC4 151305Z 13003KT 22/18 A2996 RMK A01 T02190184  RH  081%=      5-min Rain = 0
KMC4 151306Z 14002KT 22/18 A2996 RMK A01 T02200184  RH  080%=      5-min Rain = 0
KMC4 151307Z 14004KT 22/18 A2996 RMK A01 T02210184  RH  080%=      5-min Rain = 0
KMC4 151308Z 14004KT 22/18 A2996 RMK A01 T02210184  RH  079%=      5-min Rain = 0
KMC4 151309Z 14004KT 22/18 A2996 RMK A01 T02210184  RH  080%=      5-min Rain = 0
KMC4 151310Z 14004KT 22/18 A2996 RMK A01 T02210184  RH  080%=      5-min Rain = 0
KMC4 151311Z 14004KT 22/18 A2997 RMK A01 T02210184  RH  079%=      5-min Rain = 0
KMC4 151312Z 15004KT 22/18 A2997 RMK A01 T02210184  RH  079%=      5-min Rain = 0
KMC4 151313Z 15003KT 22/18 A2997 RMK A01 T02210184  RH  079%=      5-min Rain = 0
KMC4 151314Z 14003KT 22/18 A2997 RMK A01 T02200184  RH  080%=      5-min Rain = 0
KMC4 151315Z 14004KT 22/18 A2997 RMK A01 T02210184  RH  080%=      5-min Rain = 0
KMC4 151316Z 13005KT 22/18 A2997 RMK A01 T02220184  RH  079%=      5-min Rain = 0
KMC4 151317Z 13005KT 22/18 A2997 RMK A01 T02230184  RH  079%=      5-min Rain = 0
KMC4 151318Z 13004KT 22/18 A2996 RMK A01 T02230184  RH  078%=      5-min Rain = 0
KMC4 151319Z 12003KT 22/18 A2996 RMK A01 T02240184  RH  078%=      5-min Rain = 0
KMC4 151320Z 13004KT 23/19 A2997 RMK A01 T02250185  RH  078%=      5-min Rain = 0
KMC4 151321Z 13003KT 23/19 A2997 RMK A01 T02250185  RH  078%=      5-min Rain = 0
KMC4 151322Z 13003KT 23/19 A2997 RMK A01 T02260185  RH  078%=      5-min Rain = 0
KMC4 151323Z 14003KT 23/19 A2996 RMK A01 T02260185  RH  077%=      5-min Rain = 0
KMC4 151324Z 14003KT 23/19 A2996 RMK A01 T02260185  RH  078%=      5-min Rain = 0
KMC4 151325Z 14002KT 23/19 A2996 RMK A01 T02270186  RH  078%=      5-min Rain = 0
KMC4 151326Z 13002KT 23/19 A2996 RMK A01 T02280185  RH  077%=      5-min Rain = 0
KMC4 151327Z 12002KT 23/19 A2996 RMK A01 T02290185  RH  077%=      5-min Rain = 0
KMC4 151328Z 12003KT 23/19 A2996 RMK A01 T02290186  RH  076%=      5-min Rain = 0
KMC4 151329Z 14003KT 23/19 A2996 RMK A01 T02300185  RH  076%=      5-min Rain = 0
KMC4 151330Z 13004KT 23/19 A2996 RMK A01 T02300186  RH  076%=      5-min Rain = 0
KMC4 151331Z 13003KT 23/19 A2997 RMK A01 T02300185  RH  076%=      5-min Rain = 0
KMC4 151332Z 14004KT 23/19 A2997 RMK A01 T02310185  RH  076%=      5-min Rain = 0
KMC4 151333Z 14004KT 23/19 A2997 RMK A01 T02310185  RH  076%=      5-min Rain = 0
KMC4 151334Z 12004KT 23/19 A2997 RMK A01 T02310185  RH  076%=      5-min Rain = 0
KMC4 151335Z 12004KT 23/19 A2997 RMK A01 T02310185  RH  075%=      5-min Rain = 0
KMC4 151336Z 13005KT 23/19 A2997 RMK A01 T02300185  RH  076%=      5-min Rain = 0
KMC4 151337Z 14005KT 23/19 A2997 RMK A01 T02300185  RH  076%=      5-min Rain = 0
KMC4 151338Z 16003KT 23/18 A2997 RMK A01 T02310184  RH  075%=      5-min Rain = 0
KMC4 151339Z 14005KT 23/19 A2997 RMK A01 T02310185  RH  075%=      5-min Rain = 0
KMC4 151340Z 15005KT 23/19 A2997 RMK A01 T02310185  RH  075%=      5-min Rain = 0
KMC4 151341Z 15005KT 23/19 A2997 RMK A01 T02320185  RH  075%=      5-min Rain = 0
KMC4 151342Z 15004KT 23/19 A2997 RMK A01 T02320185  RH  075%=      5-min Rain = 0
KMC4 151343Z 15005KT 23/19 A2997 RMK A01 T02330186  RH  075%=      5-min Rain = 0
KMC4 151344Z 14004KT 23/19 A2997 RMK A01 T02340185  RH  074%=      5-min Rain = 0
KMC4 151345Z 14004KT 24/19 A2997 RMK A01 T02350186  RH  074%=      5-min Rain = 0
KMC4 151346Z 17004KT 24/19 A2997 RMK A01 T02350186  RH  074%=      5-min Rain = 0
KMC4 151347Z 16004KT 24/19 A2997 RMK A01 T02350186  RH  074%=      5-min Rain = 0
KMC4 151348Z 15005KT 24/19 A2997 RMK A01 T02350185  RH  073%=      5-min Rain = 0
KMC4 151349Z 17005KT 24/19 A2997 RMK A01 T02360185  RH  073%=      5-min Rain = 0
KMC4 151350Z 17005KT 24/19 A2997 RMK A01 T02360185  RH  073%=      5-min Rain = 0
KMC4 151351Z 15005KT 24/19 A2997 RMK A01 T02350185  RH  073%=      5-min Rain = 0
KMC4 151352Z 16004KT 24/18 A2997 RMK A01 T02350184  RH  073%=      5-min Rain = 0
KMC4 151353Z 16006KT 24/19 A2997 RMK A01 T02350185  RH  073%=      5-min Rain = 0
KMC4 151354Z 15005KT 24/19 A2997 RMK A01 T02350185  RH  073%=      5-min Rain = 0
KMC4 151355Z 15005KT 24/19 A2997 RMK A01 T02360185  RH  073%=      5-min Rain = 0
KMC4 151356Z 14005KT 24/18 A2997 RMK A01 T02370184  RH  072%=      5-min Rain = 0
KMC4 151357Z 14007KT 24/19 A2997 RMK A01 T02380185  RH  072%=      5-min Rain = 0
KMC4 151358Z 15005KT 24/18 A2997 RMK A01 T02400184  RH  071%=      5-min Rain = 0
KMC4 151359Z 13004KT 24/19 A2997 RMK A01 T02400185  RH  071%=      5-min Rain = 0
KMC4 151400Z 17004KT 24/19 A2997 RMK A01 T02400185  RH  071%=      5-min Rain = 0
KMC4 151401Z 18004KT 24/18 A2997 RMK A01 T02390184  RH  071%=      5-min Rain = 0
KMC4 151402Z 17004KT 24/18 A2997 RMK A01 T02380184  RH  072%=      5-min Rain = 0
KMC4 151403Z 16004KT 24/19 A2997 RMK A01 T02380185  RH  072%=      5-min Rain = 0
KMC4 151404Z 18005KT 24/18 A2997 RMK A01 T02390184  RH  072%=      5-min Rain = 0
KMC4 151405Z 17005KT 24/18 A2997 RMK A01 T02400184  RH  071%=      5-min Rain = 0
KMC4 151406Z 16005KT 24/18 A2997 RMK A01 T02410184  RH  070%=      5-min Rain = 0
KMC4 151407Z 16004KT 24/18 A2997 RMK A01 T02410184  RH  070%=      5-min Rain = 0
KMC4 151408Z 17007KT 24/18 A2997 RMK A01 T02410183  RH  070%=      5-min Rain = 0
KMC4 151409Z 17007KT 24/18 A2997 RMK A01 T02410183  RH  070%=      5-min Rain = 0
KMC4 151410Z 18006KT 24/18 A2997 RMK A01 T02410183  RH  070%=      5-min Rain = 0
KMC4 151411Z 17008KT 24/18 A2997 RMK A01 T02410183  RH  070%=      5-min Rain = 0
KMC4 151412Z 16007KT 24/18 A2997 RMK A01 T02410181  RH  069%=      5-min Rain = 0
KMC4 151413Z 17005KT 24/18 A2997 RMK A01 T02420181  RH  069%=      5-min Rain = 0
KMC4 151414Z 17006KT 24/18 A2997 RMK A01 T02430182  RH  068%=      5-min Rain = 0
KMC4 151415Z 16005KT 24/18 A2997 RMK A01 T02430182  RH  069%=      5-min Rain = 0
KMC4 151416Z 15005KT 24/18 A2997 RMK A01 T02430182  RH  069%=      5-min Rain = 0
KMC4 151417Z 17006KT 24/18 A2997 RMK A01 T02440183  RH  069%=      5-min Rain = 0
KMC4 151418Z 14007KT 25/18 A2997 RMK A01 T02450184  RH  068%=      5-min Rain = 0
KMC4 151419Z 13006KT 25/18 A2997 RMK A01 T02470184  RH  068%=      5-min Rain = 0
KMC4 151420Z 13005KT 25/18 A2997 RMK A01 T02470184  RH  068%=      5-min Rain = 0
KMC4 151421Z 12004KT 25/18 A2997 RMK A01 T02480183  RH  067%=      5-min Rain = 0
KMC4 151422Z 15004KT 25/18 A2997 RMK A01 T02480183  RH  067%=      5-min Rain = 0
KMC4 151423Z 18006KT 25/18 A2997 RMK A01 T02480179  RH  066%=      5-min Rain = 0
KMC4 151424Z 18005KT 25/18 A2997 RMK A01 T02480181  RH  066%=      5-min Rain = 0
KMC4 151425Z 14004KT 25/18 A2997 RMK A01 T02480181  RH  066%=      5-min Rain = 0
KMC4 151426Z 14006KT 25/18 A2997 RMK A01 T02490184  RH  067%=      5-min Rain = 0
KMC4 151427Z 17007KT 25/18 A2997 RMK A01 T02520181  RH  065%=      5-min Rain = 0
KMC4 151428Z 17007KT 25/18 A2997 RMK A01 T02520178  RH  063%=      5-min Rain = 0
KMC4 151429Z 18007KT 25/18 A2997 RMK A01 T02510177  RH  063%=      5-min Rain = 0
KMC4 151430Z 18006KT 25/18 A2997 RMK A01 T02500178  RH  064%=      5-min Rain = 0
KMC4 151431Z 17005KT 25/18 A2997 RMK A01 T02500178  RH  064%=      5-min Rain = 0
KMC4 151432Z 16005KT 25/18 A2997 RMK A01 T02500177  RH  064%=      5-min Rain = 0
KMC4 151433Z 16004KT 25/18 A2997 RMK A01 T02500180  RH  065%=      5-min Rain = 0
KMC4 151434Z 17005KT 25/18 A2997 RMK A01 T02510181  RH  065%=      5-min Rain = 0
KMC4 151435Z 18005KT 25/18 A2997 RMK A01 T02530181  RH  064%=      5-min Rain = 0
KMC4 151436Z 17003KT 25/18 A2997 RMK A01 T02530178  RH  063%=      5-min Rain = 0
KMC4 151437Z 15002KT 26/18 A2997 RMK A01 T02550178  RH  062%=      5-min Rain = 0
KMC4 151438Z 17004KT 26/18 A2997 RMK A01 T02570178  RH  062%=      5-min Rain = 0
KMC4 151439Z 19004KT 26/18 A2997 RMK A01 T02570178  RH  061%=      5-min Rain = 0
KMC4 151440Z 22003KT 26/17 A2997 RMK A01 T02580173  RH  059%=      5-min Rain = 0
KMC4 151441Z 22003KT 26/17 A2997 RMK A01 T02570173  RH  060%=      5-min Rain = 0
KMC4 151442Z 21003KT 26/18 A2997 RMK A01 T02570175  RH  060%=      5-min Rain = 0
KMC4 151443Z 20003KT 26/18 A2997 RMK A01 T02570175  RH  060%=      5-min Rain = 0
KMC4 151444Z 22003KT 26/18 A2997 RMK A01 T02580175  RH  060%=      5-min Rain = 0
KMC4 151445Z 21002KT 26/17 A2997 RMK A01 T02590174  RH  060%=      5-min Rain = 0
KMC4 151446Z 20004KT 26/17 A2997 RMK A01 T02590174  RH  059%=      5-min Rain = 0
KMC4 151447Z 21005KT 26/17 A2997 RMK A01 T02600172  RH  058%=      5-min Rain = 0
KMC4 151448Z 21006KT 26/17 A2997 RMK A01 T02620174  RH  058%=      5-min Rain = 0
KMC4 151449Z 19006KT 26/17 A2998 RMK A01 T02630174  RH  058%=      5-min Rain = 0
KMC4 151450Z 20005KT 26/17 A2998 RMK A01 T02630174  RH  058%=      5-min Rain = 0
KMC4 151451Z 20005KT 26/17 A2998 RMK A01 T02620172  RH  057%=      5-min Rain = 0
KMC4 151452Z 22005KT 26/17 A2998 RMK A01 T02630172  RH  057%=      5-min Rain = 0
KMC4 151453Z 21003KT 26/17 A2998 RMK A01 T02630173  RH  058%=      5-min Rain = 0
KMC4 151454Z 22003KT 26/17 A2998 RMK A01 T02630172  RH  057%=      5-min Rain = 0
KMC4 151455Z 19003KT 26/17 A2998 RMK A01 T02630173  RH  057%=      5-min Rain = 0
KMC4 151456Z 18003KT 26/17 A2998 RMK A01 T02640173  RH  057%=      5-min Rain = 0
KMC4 151457Z 21004KT 26/17 A2998 RMK A01 T02640173  RH  057%=      5-min Rain = 0
KMC4 151458Z 20005KT 27/17 A2998 RMK A01 T02650172  RH  057%=      5-min Rain = 0
KMC4 151459Z 19005KT 27/17 A2998 RMK A01 T02650170  RH  056%=      5-min Rain = 0
KMC4 151500Z 18007KT 26/17 A2998 RMK A01 T02640169  RH  056%=      5-min Rain = 0
KMC4 151501Z 20007KT 26/17 A2998 RMK A01 T02640169  RH  056%=      5-min Rain = 0
KMC4 151502Z 19005KT 26/17 A2998 RMK A01 T02640170  RH  056%=      5-min Rain = 0
KMC4 151503Z 18004KT 27/17 A2998 RMK A01 T02650170  RH  056%=      5-min Rain = 0
KMC4 151504Z 20005KT 27/17 A2998 RMK A01 T02660170  RH  055%=      5-min Rain = 0
KMC4 151505Z 20004KT 27/17 A2998 RMK A01 T02670169  RH  055%=      5-min Rain = 0
KMC4 151506Z 20001KT 27/17 A2998 RMK A01 T02670170  RH  055%=      5-min Rain = 0
KMC4 151507Z 19002KT 27/17 A2998 RMK A01 T02670169  RH  055%=      5-min Rain = 0
KMC4 151508Z 19003KT 27/17 A2998 RMK A01 T02690172  RH  055%=      5-min Rain = 0
KMC4 151509Z 19003KT 27/17 A2998 RMK A01 T02710172  RH  055%=      5-min Rain = 0
KMC4 151510Z 21005KT 27/17 A2998 RMK A01 T02710172  RH  055%=      5-min Rain = 0
KMC4 151511Z 21006KT 27/17 A2998 RMK A01 T02720172  RH  054%=      5-min Rain = 0
KMC4 151512Z 20006KT 27/17 A2998 RMK A01 T02730171  RH  054%=      5-min Rain = 0
KMC4 151513Z 17006KT 27/17 A2998 RMK A01 T02720171  RH  054%=      5-min Rain = 0
KMC4 151514Z 18003KT 27/17 A2998 RMK A01 T02700170  RH  054%=      5-min Rain = 0
KMC4 151515Z 14004KT 27/17 A2998 RMK A01 T02690170  RH  055%=      5-min Rain = 0
KMC4 151516Z 18005KT 27/17 A2998 RMK A01 T02700170  RH  054%=      5-min Rain = 0
KMC4 151517Z 20007KT 27/17 A2998 RMK A01 T02720170  RH  054%=      5-min Rain = 0
KMC4 151518Z 20005KT 27/17 A2998 RMK A01 T02730169  RH  053%=      5-min Rain = 0
KMC4 151519Z 21005KT 27/17 A2998 RMK A01 T02720169  RH  053%=      5-min Rain = 0
KMC4 151520Z 20006KT 27/17 A2998 RMK A01 T02720170  RH  054%=      5-min Rain = 0
KMC4 151521Z 22005KT 27/17 A2998 RMK A01 T02730170  RH  053%=      5-min Rain = 0
KMC4 151522Z 17006KT 27/17 A2998 RMK A01 T02730172  RH  054%=      5-min Rain = 0
KMC4 151523Z 19004KT 28/17 A2998 RMK A01 T02750173  RH  053%=      5-min Rain = 0
KMC4 151524Z 20003KT 28/17 A2998 RMK A01 T02770169  RH  052%=      5-min Rain = 0
KMC4 151525Z 18004KT 28/17 A2998 RMK A01 T02770168  RH  051%=      5-min Rain = 0
KMC4 151526Z 18007KT 28/17 A2998 RMK A01 T02770169  RH  052%=      5-min Rain = 0
KMC4 151527Z 19005KT 28/17 A2998 RMK A01 T02760168  RH  052%=      5-min Rain = 0
KMC4 151528Z 21006KT 28/17 A2998 RMK A01 T02770169  RH  052%=      5-min Rain = 0
KMC4 151529Z 21005KT 28/17 A2998 RMK A01 T02770169  RH  052%=      5-min Rain = 0
KMC4 151530Z 20007KT 28/17 A2998 RMK A01 T02770169  RH  052%=      5-min Rain = 0
KMC4 151531Z 18005KT 28/17 A2998 RMK A01 T02780169  RH  051%=      5-min Rain = 0
KMC4 151532Z 18007KT 28/17 A2998 RMK A01 T02780169  RH  051%=      5-min Rain = 0
KMC4 151533Z 22007KT 28/17 A2998 RMK A01 T02790168  RH  051%=      5-min Rain = 0
KMC4 151534Z 19007KT 28/17 A2998 RMK A01 T02820167  RH  050%=      5-min Rain = 0
KMC4 151535Z 21010KT 28/16 A2998 RMK A01 T02820163  RH  048%=      5-min Rain = 0
KMC4 151536Z 20007KT 28/16 A2998 RMK A01 T02820162  RH  048%=      5-min Rain = 0
KMC4 151537Z 21007KT 28/16 A2998 RMK A01 T02810163  RH  049%=      5-min Rain = 0
KMC4 151538Z 19006KT 28/17 A2998 RMK A01 T02830167  RH  049%=      5-min Rain = 0
KMC4 151539Z 21009KT 28/17 A2998 RMK A01 T02840167  RH  049%=      5-min Rain = 0
KMC4 151540Z 23008KT 29/16 A2998 RMK A01 T02850163  RH  048%=      5-min Rain = 0
KMC4 151541Z 23006KT 29/16 A2998 RMK A01 T02850163  RH  048%=      5-min Rain = 0
KMC4 151542Z 20005KT 28/16 A2998 RMK A01 T02840164  RH  048%=      5-min Rain = 0
KMC4 151543Z 21006KT 28/16 A2998 RMK A01 T02840164  RH  048%=      5-min Rain = 0
KMC4 151544Z 22006KT 28/17 A2998 RMK A01 T02840165  RH  048%=      5-min Rain = 0
KMC4 151545Z 21007KT 29/16 A2998 RMK A01 T02850164  RH  048%=      5-min Rain = 0
KMC4 151546Z 20007KT 29/16 A2998 RMK A01 T02850162  RH  047%=      5-min Rain = 0
KMC4 151547Z 19005KT 29/16 A2998 RMK A01 T02860163  RH  047%=      5-min Rain = 0
KMC4 151548Z 20004KT 29/16 A2998 RMK A01 T02880162  RH  046%=      5-min Rain = 0
KMC4 151549Z 18006KT 29/16 A2998 RMK A01 T02890162  RH  046%=      5-min Rain = 0
KMC4 151550Z 25005KT 29/16 A2998 RMK A01 T02910161  RH  045%=      5-min Rain = 0
KMC4 151551Z 26004KT 29/16 A2998 RMK A01 T02920158  RH  044%=      5-min Rain = 0
KMC4 151552Z 24005KT 29/16 A2998 RMK A01 T02910160  RH  045%=      5-min Rain = 0
KMC4 151553Z 25005KT 29/16 A2998 RMK A01 T02910158  RH  044%=      5-min Rain = 0
KMC4 151554Z 23004KT 29/16 A2998 RMK A01 T02920159  RH  044%=      5-min Rain = 0
KMC4 151555Z 22003KT 29/16 A2998 RMK A01 T02910159  RH  045%=      5-min Rain = 0
KMC4 151556Z 24006G11KT 29/16 A2998 RMK A01 T02910161  RH  045%=      5-min Rain = 0
KMC4 151557Z 21008KT 29/16 A2998 RMK A01 T02910158  RH  044%=      5-min Rain = 0
KMC4 151558Z 22005KT 29/16 A2998 RMK A01 T02920158  RH  044%=      5-min Rain = 0
KMC4 151559Z 20009KT 29/16 A2998 RMK A01 T02910159  RH  045%=      5-min Rain = 0
KMC4 151600Z 19006KT 29/16 A2998 RMK A01 T02920157  RH  044%=      5-min Rain = 0
KMC4 151601Z 20004KT 29/16 A2998 RMK A01 T02920158  RH  044%=      5-min Rain = 0
KMC4 151602Z 19004KT 29/16 A2998 RMK A01 T02940156  RH  043%=      5-min Rain = 0
KMC4 151603Z 20003KT 29/16 A2998 RMK A01 T02940158  RH  044%=      5-min Rain = 0
KMC4 151604Z 21005KT 29/16 A2998 RMK A01 T02940157  RH  044%=      5-min Rain = 0
KMC4 151605Z 22004KT 29/15 A2998 RMK A01 T02940154  RH  043%=      5-min Rain = 0
KMC4 151606Z 19005KT 29/15 A2998 RMK A01 T02940154  RH  043%=      5-min Rain = 0
KMC4 151607Z 17006KT 29/15 A2998 RMK A01 T02940154  RH  043%=      5-min Rain = 0
KMC4 151608Z 19006KT 29/15 A2998 RMK A01 T02940154  RH  043%=      5-min Rain = 0
KMC4 151609Z 19006KT 30/15 A2998 RMK A01 T02960153  RH  042%=      5-min Rain = 0
KMC4 151610Z 24006KT 30/15 A2998 RMK A01 T02980151  RH  041%=      5-min Rain = 0
KMC4 151611Z 24007KT 30/15 A2998 RMK A01 T02990151  RH  041%=      5-min Rain = 0
KMC4 151612Z 25007KT 30/15 A2998 RMK A01 T03020152  RH  040%=      5-min Rain = 0
KMC4 151613Z 25005KT 31/15 A2998 RMK A01 T03050153  RH  040%=      5-min Rain = 0
KMC4 151614Z 27006KT 31/15 A2998 RMK A01 T03060152  RH  039%=      5-min Rain = 0
KMC4 151615Z 20006KT 31/15 A2997 RMK A01 T03070154  RH  040%=      5-min Rain = 0
KMC4 151616Z 19005KT 31/15 A2997 RMK A01 T03090152  RH  039%=      5-min Rain = 0
KMC4 151617Z 18004KT 31/15 A2997 RMK A01 T03070151  RH  039%=      5-min Rain = 0
KMC4 151618Z 21005KT 31/15 A2997 RMK A01 T03050152  RH  039%=      5-min Rain = 0
KMC4 151619Z 18006KT 31/15 A2997 RMK A01 T03050154  RH  040%=      5-min Rain = 0
KMC4 151620Z 17004KT 31/16 A2997 RMK A01 T03050155  RH  040%=      5-min Rain = 0
KMC4 151621Z 17003KT 31/15 A2997 RMK A01 T03050154  RH  040%=      5-min Rain = 0
KMC4 151622Z 24004KT 31/15 A2997 RMK A01 T03060152  RH  039%=      5-min Rain = 0
KMC4 151623Z 22004KT 31/15 A2997 RMK A01 T03070150  RH  039%=      5-min Rain = 0
KMC4 151624Z 22006KT 31/15 A2997 RMK A01 T03080149  RH  038%=      5-min Rain = 0
KMC4 151625Z 23006KT 31/15 A2997 RMK A01 T03080150  RH  038%=      5-min Rain = 0
KMC4 151626Z 25005KT 31/15 A2997 RMK A01 T03060150  RH  039%=      5-min Rain = 0
KMC4 151627Z 25005KT 31/15 A2997 RMK A01 T03060150  RH  039%=      5-min Rain = 0
KMC4 151628Z 24002KT 31/15 A2997 RMK A01 T03070150  RH  039%=      5-min Rain = 0
KMC4 151629Z 08001KT 31/15 A2997 RMK A01 T03070150  RH  039%=      5-min Rain = 0
KMC4 151630Z 05002KT 31/15 A2997 RMK A01 T03080149  RH  038%=      5-min Rain = 0
KMC4 151631Z 05003KT 31/15 A2997 RMK A01 T03090150  RH  038%=      5-min Rain = 0
KMC4 151632Z 20004KT 31/15 A2997 RMK A01 T03100148  RH  038%=      5-min Rain = 0
KMC4 151633Z 25007KT 32/15 A2997 RMK A01 T03150145  RH  035%=      5-min Rain = 0
KMC4 151634Z 23007KT 32/15 A2997 RMK A01 T03200145  RH  035%=      5-min Rain = 0
KMC4 151635Z 25005KT 32/14 A2997 RMK A01 T03220144  RH  034%=      5-min Rain = 0
KMC4 151636Z 24005KT 32/15 A2997 RMK A01 T03210145  RH  034%=      5-min Rain = 0
KMC4 151637Z 26007KT 32/14 A2997 RMK A01 T03220137  RH  033%=      5-min Rain = 0
KMC4 151638Z 25006KT 32/13 A2997 RMK A01 T03230133  RH  031%=      5-min Rain = 0
KMC4 151639Z 25009KT 33/13 A2997 RMK A01 T03250130  RH  031%=      5-min Rain = 0
KMC4 151640Z 24007KT 33/13 A2997 RMK A01 T03250130  RH  031%=      5-min Rain = 0
KMC4 151641Z 22007KT 33/13 A2997 RMK A01 T03250128  RH  030%=      5-min Rain = 0
KMC4 151642Z 22004KT 32/13 A2997 RMK A01 T03240126  RH  030%=      5-min Rain = 0
KMC4 151643Z 27005KT 32/13 A2997 RMK A01 T03230128  RH  031%=      5-min Rain = 0
KMC4 151644Z 25005KT 32/13 A2997 RMK A01 T03220128  RH  031%=      5-min Rain = 0
KMC4 151645Z 24008KT 32/13 A2997 RMK A01 T03240128  RH  030%=      5-min Rain = 0
KMC4 151646Z 27006KT 33/13 A2997 RMK A01 T03260130  RH  030%=      5-min Rain = 0
KMC4 151647Z 26007KT 33/13 A2997 RMK A01 T03290129  RH  030%=      5-min Rain = 0
KMC4 151648Z 27006KT 33/13 A2997 RMK A01 T03300125  RH  029%=      5-min Rain = 0
KMC4 151649Z 26007KT 33/13 A2997 RMK A01 T03280126  RH  029%=      5-min Rain = 0
KMC4 151650Z 28005KT 33/12 A2997 RMK A01 T03260124  RH  029%=      5-min Rain = 0
KMC4 151651Z 31001KT 32/12 A2997 RMK A01 T03240123  RH  029%=      5-min Rain = 0
KMC4 151652Z 26003KT 32/12 A2997 RMK A01 T03230124  RH  030%=      5-min Rain = 0
KMC4 151653Z 26004KT 33/12 A2997 RMK A01 T03250123  RH  029%=      5-min Rain = 0
KMC4 151654Z 24007KT 33/12 A2997 RMK A01 T03260122  RH  029%=      5-min Rain = 0
KMC4 151655Z 24007KT 33/12 A2997 RMK A01 T03270118  RH  028%=      5-min Rain = 0
KMC4 151656Z 23007KT 33/12 A2997 RMK A01 T03290118  RH  028%=      5-min Rain = 0
KMC4 151657Z 23006KT 33/12 A2997 RMK A01 T03290116  RH  027%=      5-min Rain = 0
KMC4 151658Z 20005KT 33/12 A2997 RMK A01 T03280116  RH  027%=      5-min Rain = 0
KMC4 151659Z 21003KT 33/12 A2997 RMK A01 T03260115  RH  027%=      5-min Rain = 0
KMC4 151700Z 22005KT 33/12 A2997 RMK A01 T03260115  RH  028%=      5-min Rain = 0
KMC4 151701Z 23006KT 33/12 A2997 RMK A01 T03260115  RH  028%=      5-min Rain = 0
KMC4 151702Z 24005KT 33/12 A2997 RMK A01 T03270115  RH  027%=      5-min Rain = 0
KMC4 151703Z 24004KT 33/11 A2997 RMK A01 T03270114  RH  027%=      5-min Rain = 0
KMC4 151704Z 25006KT 33/12 A2997 RMK A01 T03280115  RH  027%=      5-min Rain = 0
KMC4 151705Z 28008KT 33/12 A2997 RMK A01 T03300116  RH  027%=      5-min Rain = 0
KMC4 151706Z 28009KT 33/12 A2997 RMK A01 T03320116  RH  027%=      5-min Rain = 0
KMC4 151707Z 26006KT 33/12 A2997 RMK A01 T03340115  RH  026%=      5-min Rain = 0
KMC4 151708Z 26005KT 33/12 A2997 RMK A01 T03320115  RH  027%=      5-min Rain = 0
KMC4 151709Z 27008KT 33/11 A2997 RMK A01 T03330114  RH  026%=      5-min Rain = 0
KMC4 151710Z 29008KT 33/11 A2997 RMK A01 T03330114  RH  026%=      5-min Rain = 0
KMC4 151711Z 28008KT 33/11 A2997 RMK A01 T03330114  RH  026%=      5-min Rain = 0
KMC4 151712Z 27008KT 33/11 A2997 RMK A01 T03320113  RH  026%=      5-min Rain = 0
KMC4 151713Z 26004KT 33/11 A2997 RMK A01 T03300111  RH  026%=      5-min Rain = 0
KMC4 151714Z 26005KT 33/11 A2997 RMK A01 T03280112  RH  027%=      5-min Rain = 0
KMC4 151715Z 27006KT 33/11 A2997 RMK A01 T03280113  RH  027%=      5-min Rain = 0
KMC4 151716Z 26006KT 33/11 A2997 RMK A01 T03300112  RH  026%=      5-min Rain = 0
KMC4 151717Z 25007KT 33/11 A2997 RMK A01 T03310114  RH  027%=      5-min Rain = 0
KMC4 151718Z 25007KT 33/11 A2997 RMK A01 T03310114  RH  027%=      5-min Rain = 0
KMC4 151719Z 21006KT 33/11 A2997 RMK A01 T03320114  RH  026%=      5-min Rain = 0
KMC4 151720Z 21005KT 33/11 A2997 RMK A01 T03330113  RH  026%=      5-min Rain = 0
KMC4 151721Z 20004KT 33/11 A2997 RMK A01 T03320112  RH  026%=      5-min Rain = 0
KMC4 151722Z 23005KT 33/11 A2997 RMK A01 T03310113  RH  026%=      5-min Rain = 0
KMC4 151723Z 24006KT 33/12 A2997 RMK A01 T03340115  RH  026%=      5-min Rain = 0
KMC4 151724Z 22008KT 34/11 A2996 RMK A01 T03370112  RH  025%=      5-min Rain = 0
KMC4 151725Z 22006KT 34/11 A2996 RMK A01 T03350110  RH  025%=      5-min Rain = 0
KMC4 151726Z 25003KT 33/11 A2996 RMK A01 T03330110  RH  026%=      5-min Rain = 0
KMC4 151727Z 25004KT 33/11 A2996 RMK A01 T03320111  RH  026%=      5-min Rain = 0
KMC4 151728Z 22005KT 33/11 A2996 RMK A01 T03330113  RH  026%=      5-min Rain = 0
KMC4 151729Z 27005KT 34/11 A2996 RMK A01 T03360114  RH  026%=      5-min Rain = 0
KMC4 151730Z 30005KT 34/11 A2996 RMK A01 T03380110  RH  025%=      5-min Rain = 0
KMC4 151731Z 29006KT 34/11 A2996 RMK A01 T03390109  RH  025%=      5-min Rain = 0
KMC4 151732Z 30006KT 34/11 A2996 RMK A01 T03400110  RH  025%=      5-min Rain = 0
KMC4 151733Z 30003KT 34/11 A2996 RMK A01 T03390109  RH  025%=      5-min Rain = 0
KMC4 151734Z 29004KT 34/11 A2996 RMK A01 T03370108  RH  025%=      5-min Rain = 0
KMC4 151735Z 28006KT 34/11 A2996 RMK A01 T03380110  RH  025%=      5-min Rain = 0
KMC4 151736Z 28007KT 34/11 A2996 RMK A01 T03390109  RH  025%=      5-min Rain = 0
KMC4 151737Z 28005KT 34/11 A2996 RMK A01 T03380107  RH  024%=      5-min Rain = 0
KMC4 151738Z 27005KT 34/11 A2996 RMK A01 T03360108  RH  025%=      5-min Rain = 0
KMC4 151739Z 26005KT 34/11 A2996 RMK A01 T03360107  RH  025%=      5-min Rain = 0
KMC4 151740Z 26003KT 34/11 A2996 RMK A01 T03360109  RH  025%=      5-min Rain = 0
KMC4 151741Z 25003KT 34/11 A2996 RMK A01 T03370108  RH  025%=      5-min Rain = 0
KMC4 151742Z 17002KT 34/11 A2996 RMK A01 T03380108  RH  025%=      5-min Rain = 0
KMC4 151743Z 16001KT 34/11 A2996 RMK A01 T03390107  RH  024%=      5-min Rain = 0
KMC4 151744Z 12001KT 34/11 A2996 RMK A01 T03400107  RH  024%=      5-min Rain = 0
KMC4 151745Z 12002KT 34/11 A2996 RMK A01 T03420108  RH  024%=      5-min Rain = 0
KMC4 151746Z 15001KT 34/11 A2996 RMK A01 T03430107  RH  024%=      5-min Rain = 0
KMC4 151747Z 25005KT 34/11 A2996 RMK A01 T03430108  RH  024%=      5-min Rain = 0
KMC4 151748Z 25004KT 34/10 A2996 RMK A01 T03420104  RH  023%=      5-min Rain = 0
KMC4 151749Z 33001KT 34/10 A2996 RMK A01 T03390104  RH  024%=      5-min Rain = 0
KMC4 151750Z 26002KT 34/11 A2996 RMK A01 T03400106  RH  024%=      5-min Rain = 0
KMC4 151751Z 27005KT 34/11 A2995 RMK A01 T03430107  RH  024%=      5-min Rain = 0
KMC4 151752Z 27005KT 34/11 A2995 RMK A01 T03440106  RH  023%=      5-min Rain = 0
KMC4 151753Z 28005KT 34/11 A2995 RMK A01 T03440105  RH  023%=      5-min Rain = 0
KMC4 151754Z 30004KT 35/10 A2995 RMK A01 T03450102  RH  023%=      5-min Rain = 0
KMC4 151755Z 31004KT 34/10 A2995 RMK A01 T03440101  RH  023%=      5-min Rain = 0
KMC4 151756Z 33002KT 34/10 A2995 RMK A01 T03430098  RH  022%=      5-min Rain = 0
KMC4 151757Z 31002KT 34/10 A2995 RMK A01 T03430098  RH  022%=      5-min Rain = 0
KMC4 151758Z 28003KT 34/10 A2995 RMK A01 T03430098  RH  022%=      5-min Rain = 0
KMC4 151759Z 24003KT 34/10 A2995 RMK A01 T03420098  RH  023%=      5-min Rain = 0
KMC4 151800Z 24002KT 34/10 A2995 RMK A01 T03410097  RH  022%=      5-min Rain = 0
KMC4 151801Z 09000KT 34/10 A2995 RMK A01 T03400095  RH  022%=      5-min Rain = 0
KMC4 151802Z 10001KT 34/10 A2995 RMK A01 T03410096  RH  022%=      5-min Rain = 0
KMC4 151803Z 36001KT 34/10 A2995 RMK A01 T03420097  RH  022%=      5-min Rain = 0
KMC4 151804Z 30003KT 35/10 A2995 RMK A01 T03450099  RH  022%=      5-min Rain = 0
KMC4 151805Z 30002KT 35/10 A2995 RMK A01 T03460099  RH  022%=      5-min Rain = 0
KMC4 151806Z 34001KT 35/10 A2995 RMK A01 T03480100  RH  022%=      5-min Rain = 0
KMC4 151807Z 07000KT 35/10 A2995 RMK A01 T03500099  RH  022%=      5-min Rain = 0
KMC4 151808Z 28001KT 35/10 A2995 RMK A01 T03510099  RH  022%=      5-min Rain = 0
KMC4 151809Z 28003KT 35/10 A2995 RMK A01 T03530099  RH  021%=      5-min Rain = 0
KMC4 151810Z 27002KT 35/10 A2995 RMK A01 T03540098  RH  021%=      5-min Rain = 0
KMC4 151811Z 31005KT 36/10 A2995 RMK A01 T03560100  RH  021%=      5-min Rain = 0
KMC4 151812Z 30008KT 36/10 A2995 RMK A01 T03590098  RH  020%=      5-min Rain = 0
KMC4 151813Z 31006KT 36/09 A2995 RMK A01 T03560094  RH  020%=      5-min Rain = 0
KMC4 151814Z 32007KT 35/09 A2995 RMK A01 T03530094  RH  021%=      5-min Rain = 0
KMC4 151815Z 33004KT 35/09 A2995 RMK A01 T03520092  RH  020%=      5-min Rain = 0
KMC4 151816Z 30003KT 35/09 A2995 RMK A01 T03500092  RH  021%=      5-min Rain = 0
KMC4 151817Z 27003KT 35/09 A2995 RMK A01 T03490094  RH  021%=      5-min Rain = 0
KMC4 151818Z 30003KT 35/09 A2995 RMK A01 T03510092  RH  021%=      5-min Rain = 0
KMC4 151819Z 28006KT 35/09 A2995 RMK A01 T03510092  RH  021%=      5-min Rain = 0
KMC4 151820Z 28005KT 35/09 A2995 RMK A01 T03510085  RH  020%=      5-min Rain = 0
KMC4 151821Z 28004KT 35/08 A2995 RMK A01 T03500083  RH  019%=      5-min Rain = 0
KMC4 151822Z 23004KT 35/09 A2995 RMK A01 T03510087  RH  020%=      5-min Rain = 0
KMC4 151823Z 23005KT 35/08 A2995 RMK A01 T03510081  RH  019%=      5-min Rain = 0
KMC4 151824Z 29003KT 35/08 A2995 RMK A01 T03500084  RH  020%=      5-min Rain = 0
KMC4 151825Z 31005KT 35/09 A2995 RMK A01 T03510088  RH  020%=      5-min Rain = 0
KMC4 151826Z 27005KT 35/09 A2994 RMK A01 T03540089  RH  020%=      5-min Rain = 0
KMC4 151827Z 29006KT 36/09 A2994 RMK A01 T03570088  RH  019%=      5-min Rain = 0
KMC4 151828Z 29007KT 36/08 A2994 RMK A01 T03610084  RH  018%=      5-min Rain = 0
KMC4 151829Z 30006KT 36/09 A2994 RMK A01 T03600085  RH  019%=      5-min Rain = 0
KMC4 151830Z 30006KT 36/09 A2994 RMK A01 T03570085  RH  019%=      5-min Rain = 0
KMC4 151831Z 29007KT 36/09 A2994 RMK A01 T03550085  RH  019%=      5-min Rain = 0
KMC4 151832Z 30005KT 35/08 A2994 RMK A01 T03530080  RH  019%=      5-min Rain = 0
KMC4 151833Z 33003KT 35/08 A2994 RMK A01 T03510080  RH  019%=      5-min Rain = 0
KMC4 151834Z 31002KT 35/08 A2994 RMK A01 T03520081  RH  019%=      5-min Rain = 0
KMC4 151835Z 34004KT 35/09 A2994 RMK A01 T03530085  RH  019%=      5-min Rain = 0
KMC4 151836Z 33004KT 35/08 A2994 RMK A01 T03540083  RH  019%=      5-min Rain = 0
KMC4 151837Z 33007KT 36/08 A2994 RMK A01 T03550084  RH  019%=      5-min Rain = 0
KMC4 151838Z 29005KT 36/08 A2994 RMK A01 T03560081  RH  019%=      5-min Rain = 0
KMC4 151839Z 26006G11KT 36/08 A2994 RMK A01 T03570079  RH  018%=      5-min Rain = 0
KMC4 151840Z 29005KT 36/08 A2994 RMK A01 T03600079  RH  018%=      5-min Rain = 0
KMC4 151841Z 26002KT 36/08 A2994 RMK A01 T03610078  RH  018%=      5-min Rain = 0
KMC4 151842Z 25006KT 36/08 A2994 RMK A01 T03640077  RH  017%=      5-min Rain = 0
KMC4 151843Z 25006KT 36/08 A2994 RMK A01 T03640075  RH  017%=      5-min Rain = 0
KMC4 151844Z 25005KT 36/07 A2994 RMK A01 T03620074  RH  017%=      5-min Rain = 0
KMC4 151845Z 25006KT 36/07 A2994 RMK A01 T03610073  RH  017%=      5-min Rain = 0
KMC4 151846Z 28006KT 36/07 A2994 RMK A01 T03580070  RH  017%=      5-min Rain = 0
KMC4 151847Z 29004KT 36/07 A2994 RMK A01 T03550071  RH  017%=      5-min Rain = 0
KMC4 151848Z 25003KT 35/07 A2994 RMK A01 T03540071  RH  017%=      5-min Rain = 0
KMC4 151849Z 24003KT 35/07 A2994 RMK A01 T03540071  RH  018%=      5-min Rain = 0
KMC4 151850Z 15001KT 35/07 A2994 RMK A01 T03530070  RH  018%=      5-min Rain = 0
KMC4 151851Z 10002KT 35/07 A2994 RMK A01 T03530074  RH  018%=      5-min Rain = 0
KMC4 151852Z 09001KT 35/07 A2993 RMK A01 T03520071  RH  018%=      5-min Rain = 0
KMC4 151853Z 26005KT 35/07 A2993 RMK A01 T03530073  RH  018%=      5-min Rain = 0
KMC4 151854Z 25007KT 36/07 A2993 RMK A01 T03600072  RH  017%=      5-min Rain = 0
KMC4 151855Z 27006KT 36/07 A2993 RMK A01 T03640066  RH  016%=      5-min Rain = 0
KMC4 151856Z 26005KT 36/07 A2993 RMK A01 T03630066  RH  016%=      5-min Rain = 0
KMC4 151857Z 25005KT 36/07 A2993 RMK A01 T03610065  RH  016%=      5-min Rain = 0
KMC4 151858Z 25005KT 36/07 A2993 RMK A01 T03600071  RH  017%=      5-min Rain = 0
KMC4 151859Z 26006KT 36/07 A2993 RMK A01 T03590073  RH  017%=      5-min Rain = 0
KMC4 151900Z 26006KT 36/07 A2993 RMK A01 T03590068  RH  017%=      5-min Rain = 0
KMC4 151901Z 27007KT 36/07 A2993 RMK A01 T03590068  RH  017%=      5-min Rain = 0
KMC4 151902Z 23005KT 36/06 A2993 RMK A01 T03580060  RH  016%=      5-min Rain = 0
KMC4 151903Z 23006KT 36/06 A2993 RMK A01 T03570055  RH  015%=      5-min Rain = 0
KMC4 151904Z 23005KT 36/06 A2993 RMK A01 T03560058  RH  016%=      5-min Rain = 0
KMC4 151905Z 22003KT 36/06 A2993 RMK A01 T03580057  RH  016%=      5-min Rain = 0
KMC4 151906Z 24004KT 36/06 A2993 RMK A01 T03590059  RH  016%=      5-min Rain = 0
KMC4 151907Z 26003KT 36/06 A2993 RMK A01 T03580063  RH  016%=      5-min Rain = 0
KMC4 151908Z 22005KT 36/07 A2993 RMK A01 T03600065  RH  016%=      5-min Rain = 0
KMC4 151909Z 23004KT 36/06 A2993 RMK A01 T03610062  RH  016%=      5-min Rain = 0
KMC4 151910Z 23002KT 36/07 A2993 RMK A01 T03600065  RH  016%=      5-min Rain = 0
KMC4 151911Z 21001KT 36/07 A2993 RMK A01 T03590065  RH  016%=      5-min Rain = 0
KMC4 151912Z 24004KT 36/07 A2993 RMK A01 T03600066  RH  016%=      5-min Rain = 0
KMC4 151913Z 23005KT 36/07 A2993 RMK A01 T03610066  RH  016%=      5-min Rain = 0
KMC4 151914Z 22002KT 36/07 A2993 RMK A01 T03610065  RH  016%=      5-min Rain = 0
KMC4 151915Z 17001KT 36/06 A2992 RMK A01 T03600063  RH  016%=      5-min Rain = 0
KMC4 151916Z 27003KT 36/07 A2992 RMK A01 T03600066  RH  016%=      5-min Rain = 0
KMC4 151917Z 23005KT 36/07 A2992 RMK A01 T03620066  RH  016%=      5-min Rain = 0
KMC4 151918Z 25004KT 36/06 A2992 RMK A01 T03620063  RH  016%=      5-min Rain = 0
KMC4 151919Z 27005KT 36/07 A2992 RMK A01 T03620066  RH  016%=      5-min Rain = 0
KMC4 151920Z 24005KT 36/07 A2992 RMK A01 T03630065  RH  016%=      5-min Rain = 0
KMC4 151921Z 26005KT 36/06 A2992 RMK A01 T03620061  RH  016%=      5-min Rain = 0
KMC4 151922Z 29004KT 36/06 A2992 RMK A01 T03610060  RH  016%=      5-min Rain = 0
KMC4 151923Z 31005KT 36/06 A2992 RMK A01 T03600063  RH  016%=      5-min Rain = 0
KMC4 151924Z 34006KT 36/06 A2992 RMK A01 T03610060  RH  016%=      5-min Rain = 0
KMC4 151925Z 34004KT 36/06 A2992 RMK A01 T03620058  RH  015%=      5-min Rain = 0
KMC4 151926Z 31002KT 36/05 A2992 RMK A01 T03630052  RH  015%=      5-min Rain = 0
KMC4 151927Z 32003KT 37/06 A2992 RMK A01 T03650058  RH  015%=      5-min Rain = 0
KMC4 151928Z 32003KT 37/05 A2992 RMK A01 T03680054  RH  014%=      5-min Rain = 0
KMC4 151929Z 30001KT 37/06 A2992 RMK A01 T03690058  RH  015%=      5-min Rain = 0
KMC4 151930Z 29002KT 37/06 A2992 RMK A01 T03690060  RH  015%=      5-min Rain = 0
KMC4 151931Z 12002KT 37/06 A2992 RMK A01 T03710059  RH  015%=      5-min Rain = 0
KMC4 151932Z 10007KT 37/06 A2991 RMK A01 T03720057  RH  014%=      5-min Rain = 0
KMC4 151933Z 08006KT 37/05 A2991 RMK A01 T03730054  RH  014%=      5-min Rain = 0
KMC4 151934Z 07006KT 37/06 A2991 RMK A01 T03700055  RH  014%=      5-min Rain = 0
KMC4 151935Z 07004KT 37/06 A2991 RMK A01 T03670056  RH  015%=      5-min Rain = 0
KMC4 151936Z 08002KT 37/06 A2991 RMK A01 T03660056  RH  015%=      5-min Rain = 0
KMC4 151937Z 07003KT 37/06 A2991 RMK A01 T03670055  RH  015%=      5-min Rain = 0
KMC4 151938Z 11003KT 37/06 A2991 RMK A01 T03680056  RH  015%=      5-min Rain = 0
KMC4 151939Z 17005KT 37/05 A2991 RMK A01 T03690050  RH  014%=      5-min Rain = 0
KMC4 151940Z 17007KT 37/04 A2991 RMK A01 T03700044  RH  013%=      5-min Rain = 0
KMC4 151941Z 18005KT 37/04 A2991 RMK A01 T03710039  RH  013%=      5-min Rain = 0
KMC4 151942Z 17008KT 37/04 A2991 RMK A01 T03690044  RH  013%=      5-min Rain = 0
KMC4 151943Z 17006KT 37/04 A2991 RMK A01 T03680043  RH  013%=      5-min Rain = 0
KMC4 151944Z 19005KT 37/04 A2991 RMK A01 T03670042  RH  013%=      5-min Rain = 0
KMC4 151945Z 22003KT 37/04 A2991 RMK A01 T03660040  RH  013%=      5-min Rain = 0
KMC4 151946Z 17004KT 37/04 A2991 RMK A01 T03650041  RH  013%=      5-min Rain = 0
KMC4 151947Z 16004KT 37/04 A2991 RMK A01 T03660040  RH  013%=      5-min Rain = 0
KMC4 151948Z 13005KT 37/04 A2991 RMK A01 T03670040  RH  013%=      5-min Rain = 0
KMC4 151949Z 13004KT 37/04 A2991 RMK A01 T03700035  RH  013%=      5-min Rain = 0
KMC4 151950Z 11002KT 37/04 A2991 RMK A01 T03700035  RH  012%=      5-min Rain = 0
KMC4 151951Z 13002KT 37/04 A2991 RMK A01 T03700035  RH  013%=      5-min Rain = 0
KMC4 151952Z 10002KT 37/04 A2991 RMK A01 T03700035  RH  013%=      5-min Rain = 0
KMC4 151953Z 06001KT 37/04 A299 RMK A01 T03720036  RH  012%=      5-min Rain = 0
KMC4 151954Z 19004KT 37/03 A299 RMK A01 T03730033  RH  012%=      5-min Rain = 0
KMC4 151955Z 20006KT 38/04 A299 RMK A01 T03750036  RH  012%=      5-min Rain = 0
KMC4 151956Z 14008KT 38/04 A299 RMK A01 T03760036  RH  012%=      5-min Rain = 0
KMC4 151957Z 12007KT 38/04 A299 RMK A01 T03790042  RH  013%=      5-min Rain = 0
KMC4 151958Z 12005KT 38/04 A299 RMK A01 T03780041  RH  012%=      5-min Rain = 0
KMC4 151959Z 18004KT 38/04 A299 RMK A01 T03770039  RH  012%=      5-min Rain = 0
KMC4 152000Z 16002KT 37/04 A299 RMK A01 T03740036  RH  012%=      5-min Rain = 0
KMC4 152001Z 18002G8KT 37/04 A299 RMK A01 T03730035  RH  012%=      5-min Rain = 0
KMC4 152002Z 17008KT 37/04 A299 RMK A01 T03740037  RH  012%=      5-min Rain = 0
KMC4 152003Z 18004KT 38/04 A299 RMK A01 T03780037  RH  012%=      5-min Rain = 0
KMC4 152004Z 19003KT 38/04 A299 RMK A01 T03790035  RH  012%=      5-min Rain = 0
KMC4 152005Z 13003KT 38/04 A299 RMK A01 T03770036  RH  012%=      5-min Rain = 0
KMC4 152006Z 13007KT 38/04 A299 RMK A01 T03780041  RH  012%=      5-min Rain = 0
KMC4 152007Z 14003KT 38/03 A299 RMK A01 T03780034  RH  012%=      5-min Rain = 0
KMC4 152008Z 17002KT 37/03 A299 RMK A01 T03740034  RH  012%=      5-min Rain = 0
KMC4 152009Z 21002KT 37/03 A299 RMK A01 T03740034  RH  012%=      5-min Rain = 0
KMC4 152010Z 10002KT 38/04 A299 RMK A01 T03760038  RH  012%=      5-min Rain = 0
KMC4 152011Z 22001KT 38/04 A299 RMK A01 T03790036  RH  012%=      5-min Rain = 0
KMC4 152012Z 22000KT 38/04 A299 RMK A01 T03810036  RH  012%=      5-min Rain = 0
KMC4 152013Z 10002KT 38/04 A299 RMK A01 T03840039  RH  012%=      5-min Rain = 0
KMC4 152014Z 15003KT 39/04 A299 RMK A01 T03850035  RH  011%=      5-min Rain = 0
KMC4 152015Z 18003KT 38/03 A299 RMK A01 T03820034  RH  012%=      5-min Rain = 0
KMC4 152016Z 16003KT 38/03 A299 RMK A01 T03760032  RH  012%=      5-min Rain = 0
KMC4 152017Z 16006KT 38/03 A299 RMK A01 T03750034  RH  012%=      5-min Rain = 0
KMC4 152018Z 18003KT 38/03 A299 RMK A01 T03760033  RH  012%=      5-min Rain = 0
KMC4 152019Z 24003KT 38/03 A299 RMK A01 T03750031  RH  012%=      5-min Rain = 0
KMC4 152020Z 14002KT 38/04 A299 RMK A01 T03760035  RH  012%=      5-min Rain = 0
KMC4 152021Z 09001KT 38/03 A299 RMK A01 T03790034  RH  012%=      5-min Rain = 0
KMC4 152022Z 04002KT 38/03 A2989 RMK A01 T03810033  RH  012%=      5-min Rain = 0
KMC4 152023Z 11006G12KT 38/04 A2989 RMK A01 T03810036  RH  012%=      5-min Rain = 0
KMC4 152024Z 16012KT 39/04 A2988 RMK A01 T03860041  RH  012%=      5-min Rain = 0
KMC4 152025Z 06004KT 39/04 A2988 RMK A01 T03870040  RH  012%=      5-min Rain = 0
KMC4 152026Z 34012KT 39/04 A2988 RMK A01 T03890039  RH  012%=      5-min Rain = 0
KMC4 152027Z 30009KT 39/04 A2989 RMK A01 T03860042  RH  012%=      5-min Rain = 0
KMC4 152028Z 30006KT 38/04 A2989 RMK A01 T03820044  RH  012%=      5-min Rain = 0
KMC4 152029Z 29004KT 38/04 A2989 RMK A01 T03790043  RH  013%=      5-min Rain = 0
KMC4 152030Z 30004KT 38/05 A2989 RMK A01 T03780046  RH  013%=      5-min Rain = 0
KMC4 152031Z 31004KT 38/05 A2989 RMK A01 T03780045  RH  013%=      5-min Rain = 0
KMC4 152032Z 32002KT 38/04 A2989 RMK A01 T03790040  RH  012%=      5-min Rain = 0
KMC4 152033Z 31003KT 38/04 A2989 RMK A01 T03790039  RH  012%=      5-min Rain = 0
KMC4 152034Z 34006KT 38/04 A2989 RMK A01 T03800040  RH  012%=      5-min Rain = 0
KMC4 152035Z 32003KT 38/04 A2989 RMK A01 T03810039  RH  012%=      5-min Rain = 0
KMC4 152036Z 25005KT 38/04 A2989 RMK A01 T03830041  RH  012%=      5-min Rain = 0
KMC4 152037Z 27008KT 39/04 A2989 RMK A01 T03850041  RH  012%=      5-min Rain = 0
KMC4 152038Z 27006KT 38/04 A2989 RMK A01 T03820039  RH  012%=      5-min Rain = 0
KMC4 152039Z 29003KT 38/04 A2989 RMK A01 T03800039  RH  012%=      5-min Rain = 0
KMC4 152040Z 27003KT 38/04 A2989 RMK A01 T03800041  RH  012%=      5-min Rain = 0
KMC4 152041Z 22004KT 38/04 A2989 RMK A01 T03810039  RH  012%=      5-min Rain = 0
KMC4 152042Z 20001KT 38/04 A2989 RMK A01 T03800037  RH  012%=      5-min Rain = 0
KMC4 152043Z 25001G6KT 38/04 A2989 RMK A01 T03790039  RH  012%=      5-min Rain = 0
KMC4 152044Z 24009KT 38/04 A2988 RMK A01 T03820040  RH  012%=      5-min Rain = 0
KMC4 152045Z 23011KT 38/04 A2988 RMK A01 T03840040  RH  012%=      5-min Rain = 0
KMC4 152046Z 24010KT 38/04 A2988 RMK A01 T03830041  RH  012%=      5-min Rain = 0
KMC4 152047Z 25012KT 38/04 A2988 RMK A01 T03840039  RH  012%=      5-min Rain = 0
KMC4 152048Z 26013KT 38/04 A2988 RMK A01 T03840040  RH  012%=      5-min Rain = 0
KMC4 152049Z 25013KT 39/04 A2988 RMK A01 T03860042  RH  012%=      5-min Rain = 0
KMC4 152050Z 27008KT 38/04 A2988 RMK A01 T03820038  RH  012%=      5-min Rain = 0
KMC4 152051Z 27006KT 38/04 A2988 RMK A01 T03790038  RH  012%=      5-min Rain = 0
KMC4 152052Z 26006KT 38/04 A2988 RMK A01 T03760037  RH  012%=      5-min Rain = 0
KMC4 152053Z 26007KT 38/04 A2988 RMK A01 T03780041  RH  012%=      5-min Rain = 0
KMC4 152054Z 24008KT 38/04 A2988 RMK A01 T03820039  RH  012%=      5-min Rain = 0
KMC4 152055Z 21010KT 38/04 A2988 RMK A01 T03820037  RH  012%=      5-min Rain = 0
KMC4 152056Z 22011KT 38/04 A2988 RMK A01 T03790037  RH  012%=      5-min Rain = 0
KMC4 152057Z 21010KT 38/04 A2988 RMK A01 T03780036  RH  012%=      5-min Rain = 0
KMC4 152058Z 20009KT 38/04 A2988 RMK A01 T03770035  RH  012%=      5-min Rain = 0
KMC4 152059Z 18007KT 38/04 A2988 RMK A01 T03760035  RH  012%=      5-min Rain = 0
KMC4 152100Z 20010KT 38/04 A2988 RMK A01 T03760035  RH  012%=      5-min Rain = 0
KMC4 152101Z 19010KT 38/03 A2988 RMK A01 T03790034  RH  012%=      5-min Rain = 0
KMC4 152102Z 19011KT 38/04 A2987 RMK A01 T03800036  RH  012%=      5-min Rain = 0
KMC4 152103Z 19013KT 38/04 A2987 RMK A01 T03820036  RH  012%=      5-min Rain = 0
KMC4 152104Z 17008KT 38/03 A2988 RMK A01 T03810034  RH  012%=      5-min Rain = 0
KMC4 152105Z 16009KT 38/03 A2987 RMK A01 T03780032  RH  012%=      5-min Rain = 0
KMC4 152106Z 15006KT 38/03 A2988 RMK A01 T03770031  RH  012%=      5-min Rain = 0
KMC4 152107Z 16006KT 38/03 A2988 RMK A01 T03780032  RH  012%=      5-min Rain = 0
KMC4 152108Z 19008KT 38/03 A2988 RMK A01 T03800034  RH  012%=      5-min Rain = 0
KMC4 152109Z 17008KT 38/03 A2988 RMK A01 T03800033  RH  012%=      5-min Rain = 0
KMC4 152110Z 17007KT 38/03 A2988 RMK A01 T03790033  RH  012%=      5-min Rain = 0
KMC4 152111Z 18006KT 38/03 A2988 RMK A01 T03770032  RH  012%=      5-min Rain = 0
KMC4 152112Z 20006KT 37/03 A2988 RMK A01 T03740032  RH  012%=      5-min Rain = 0
KMC4 152113Z 20008KT 37/03 A2988 RMK A01 T03740033  RH  012%=      5-min Rain = 0
KMC4 152114Z 18008KT 37/03 A2988 RMK A01 T03730033  RH  012%=      5-min Rain = 0
KMC4 152115Z 24005KT 37/03 A2988 RMK A01 T03720031  RH  012%=      5-min Rain = 0
KMC4 152116Z 20005KT 37/03 A2988 RMK A01 T03700028  RH  012%=      5-min Rain = 0
KMC4 152117Z 19013G20KT 37/06 A2988 RMK A01 T03700057  RH  015%=      5-min Rain = 0
KMC4 152118Z 18016KT 36/12 A2988 RMK A01 T03620124  RH  024%=      5-min Rain = 0
KMC4 152119Z 18017G22KT 35/13 A2988 RMK A01 T03520125  RH  026%=      5-min Rain = 0
KMC4 152120Z 17017KT 35/12 A2988 RMK A01 T03460120  RH  025%=      5-min Rain = 0
KMC4 152121Z 17013G19KT 34/12 A2988 RMK A01 T03430119  RH  026%=      5-min Rain = 0
KMC4 152122Z 18013G19KT 34/12 A2988 RMK A01 T03430119  RH  026%=      5-min Rain = 0
KMC4 152123Z 18013KT 34/12 A2988 RMK A01 T03420119  RH  026%=      5-min Rain = 0
KMC4 152124Z 17019G25KT 34/11 A2988 RMK A01 T03430112  RH  025%=      5-min Rain = 0
KMC4 152125Z 16020KT 34/10 A2988 RMK A01 T03430099  RH  023%=      5-min Rain = 0
KMC4 152126Z 16021KT 34/09 A2987 RMK A01 T03440093  RH  022%=      5-min Rain = 0
KMC4 152127Z 16020KT 35/09 A2987 RMK A01 T03450090  RH  021%=      5-min Rain = 0
KMC4 152128Z 16020KT 35/09 A2987 RMK A01 T03460089  RH  021%=      5-min Rain = 0
KMC4 152129Z 16023KT 35/09 A2987 RMK A01 T03490090  RH  020%=      5-min Rain = 0
KMC4 152130Z 16023KT 35/09 A2987 RMK A01 T03510087  RH  020%=      5-min Rain = 0
KMC4 152131Z 16022KT 35/08 A2987 RMK A01 T03510084  RH  019%=      5-min Rain = 0
KMC4 152132Z 16020KT 35/09 A2987 RMK A01 T03510088  RH  020%=      5-min Rain = 0
KMC4 152133Z 16019G24KT 35/09 A2987 RMK A01 T03530090  RH  020%=      5-min Rain = 0
KMC4 152134Z 16019KT 36/09 A2987 RMK A01 T03560088  RH  019%=      5-min Rain = 0
KMC4 152135Z 16021KT 36/09 A2988 RMK A01 T03550088  RH  020%=      5-min Rain = 0
KMC4 152136Z 16018KT 35/09 A2988 RMK A01 T03530087  RH  020%=      5-min Rain = 0
KMC4 152137Z 17017KT 35/09 A2988 RMK A01 T03520087  RH  020%=      5-min Rain = 0
KMC4 152138Z 17019KT 35/08 A2988 RMK A01 T03540084  RH  019%=      5-min Rain = 0
KMC4 152139Z 16015KT 35/08 A2988 RMK A01 T03540080  RH  019%=      5-min Rain = 0
KMC4 152140Z 16012G17KT 36/08 A2988 RMK A01 T03580080  RH  018%=      5-min Rain = 0
KMC4 152141Z 15018KT 36/08 A2987 RMK A01 T03640078  RH  017%=      5-min Rain = 0
KMC4 152142Z 15016KT 36/08 A2987 RMK A01 T03630076  RH  017%=      5-min Rain = 0
KMC4 152143Z 14017KT 36/08 A2988 RMK A01 T03640076  RH  017%=      5-min Rain = 0
KMC4 152144Z 15015KT 37/08 A2988 RMK A01 T03660075  RH  017%=      5-min Rain = 0
KMC4 152145Z 15016KT 37/07 A2987 RMK A01 T03660073  RH  017%=      5-min Rain = 0
KMC4 152146Z 15016KT 37/08 A2987 RMK A01 T03670079  RH  017%=      5-min Rain = 0
KMC4 152147Z 15014KT 36/08 A2987 RMK A01 T03630082  RH  018%=      5-min Rain = 0
KMC4 152148Z 16016KT 37/08 A2987 RMK A01 T03650081  RH  018%=      5-min Rain = 0
KMC4 152149Z 16016G21KT 36/07 A2987 RMK A01 T03640073  RH  017%=      5-min Rain = 0
KMC4 152150Z 17014KT 36/07 A2987 RMK A01 T03630073  RH  017%=      5-min Rain = 0
KMC4 152151Z 16017KT 36/07 A2987 RMK A01 T03630069  RH  016%=      5-min Rain = 0
KMC4 152152Z 13018KT 36/07 A2987 RMK A01 T03620069  RH  017%=      5-min Rain = 0
KMC4 152153Z 13016KT 36/07 A2987 RMK A01 T03610073  RH  017%=      5-min Rain = 0
KMC4 152154Z 14016KT 36/07 A2987 RMK A01 T03610074  RH  017%=      5-min Rain = 0
KMC4 152155Z 13014KT 36/08 A2987 RMK A01 T03620081  RH  018%=      5-min Rain = 0
KMC4 152156Z 13014KT 36/08 A2987 RMK A01 T03630075  RH  017%=      5-min Rain = 0
KMC4 152157Z 13015KT 36/07 A2987 RMK A01 T03640070  RH  017%=      5-min Rain = 0
KMC4 152158Z 14016KT 37/08 A2987 RMK A01 T03650075  RH  017%=      5-min Rain = 0
KMC4 152159Z 16014KT 37/07 A2987 RMK A01 T03680073  RH  016%=      5-min Rain = 0
KMC4 152200Z 17014KT 37/08 A2987 RMK A01 T03680076  RH  017%=      5-min Rain = 0
KMC4 152201Z 18016KT 36/08 A2987 RMK A01 T03640078  RH  017%=      5-min Rain = 0
KMC4 152202Z 17011KT 36/08 A2987 RMK A01 T03590079  RH  018%=      5-min Rain = 0
KMC4 152203Z 15012KT 36/07 A2987 RMK A01 T03570074  RH  018%=      5-min Rain = 0
KMC4 152204Z 14011KT 36/08 A2987 RMK A01 T03560077  RH  018%=      5-min Rain = 0
KMC4 152205Z 15012KT 36/07 A2987 RMK A01 T03550069  RH  017%=      5-min Rain = 0
KMC4 152206Z 15011KT 36/07 A2987 RMK A01 T03560068  RH  017%=      5-min Rain = 0
KMC4 152207Z 15013G19KT 36/06 A2987 RMK A01 T03570064  RH  016%=      5-min Rain = 0
KMC4 152208Z 14011KT 36/06 A2987 RMK A01 T03580063  RH  016%=      5-min Rain = 0
KMC4 152209Z 15012KT 36/06 A2987 RMK A01 T03590062  RH  016%=      5-min Rain = 0
KMC4 152210Z 16015KT 36/06 A2987 RMK A01 T03630058  RH  015%=      5-min Rain = 0
KMC4 152211Z 16012G17KT 37/05 A2987 RMK A01 T03650053  RH  015%=      5-min Rain = 0
KMC4 152212Z 16012KT 36/05 A2987 RMK A01 T03620051  RH  015%=      5-min Rain = 0
KMC4 152213Z 14015KT 36/05 A2987 RMK A01 T03630054  RH  015%=      5-min Rain = 0
KMC4 152214Z 14013KT 37/05 A2987 RMK A01 T03650054  RH  015%=      5-min Rain = 0
KMC4 152215Z 14013KT 37/06 A2987 RMK A01 T03670055  RH  015%=      5-min Rain = 0
KMC4 152216Z 13014KT 37/06 A2986 RMK A01 T03690056  RH  015%=      5-min Rain = 0
KMC4 152217Z 13012KT 37/06 A2986 RMK A01 T03680056  RH  015%=      5-min Rain = 0
KMC4 152218Z 14016KT 37/06 A2986 RMK A01 T03680058  RH  015%=      5-min Rain = 0
KMC4 152219Z 14011KT 37/06 A2986 RMK A01 T03690058  RH  015%=      5-min Rain = 0
KMC4 152220Z 16013KT 37/06 A2986 RMK A01 T03690059  RH  015%=      5-min Rain = 0
KMC4 152221Z 18013KT 37/06 A2986 RMK A01 T03690060  RH  015%=      5-min Rain = 0
KMC4 152222Z 18010KT 37/06 A2986 RMK A01 T03660061  RH  015%=      5-min Rain = 0
KMC4 152223Z 18012KT 37/06 A2986 RMK A01 T03660062  RH  015%=      5-min Rain = 0
KMC4 152224Z 17013G18KT 37/06 A2986 RMK A01 T03670063  RH  015%=      5-min Rain = 0
KMC4 152225Z 17014KT 37/06 A2986 RMK A01 T03660064  RH  016%=      5-min Rain = 0
KMC4 152226Z 18010KT 36/06 A2986 RMK A01 T03630064  RH  016%=      5-min Rain = 0
KMC4 152227Z 17013G18KT 36/07 A2986 RMK A01 T03620066  RH  016%=      5-min Rain = 0
KMC4 152228Z 18015KT 36/07 A2986 RMK A01 T03630068  RH  016%=      5-min Rain = 0
KMC4 152229Z 19010KT 36/07 A2986 RMK A01 T03620065  RH  016%=      5-min Rain = 0
KMC4 152230Z 19010G16KT 36/07 A2986 RMK A01 T03600066  RH  016%=      5-min Rain = 0
KMC4 152231Z 18011G16KT 36/07 A2986 RMK A01 T03600067  RH  016%=      5-min Rain = 0
KMC4 152232Z 19007KT 36/07 A2986 RMK A01 T03590067  RH  017%=      5-min Rain = 0
KMC4 152233Z 19007KT 36/07 A2986 RMK A01 T03600067  RH  017%=      5-min Rain = 0
KMC4 152234Z 17006KT 36/07 A2986 RMK A01 T03590068  RH  017%=      5-min Rain = 0
KMC4 152235Z 14007KT 36/07 A2986 RMK A01 T03580068  RH  017%=      5-min Rain = 0
KMC4 152236Z 13006KT 36/07 A2986 RMK A01 T03600068  RH  017%=      5-min Rain = 0
KMC4 152237Z 15009G14KT 36/07 A2986 RMK A01 T03610069  RH  017%=      5-min Rain = 0
KMC4 152238Z 16012KT 36/08 A2986 RMK A01 T03640075  RH  017%=      5-min Rain = 0
KMC4 152239Z 16014KT 37/08 A2986 RMK A01 T03650081  RH  018%=      5-min Rain = 0
KMC4 152240Z 15014KT 36/08 A2986 RMK A01 T03640084  RH  018%=      5-min Rain = 0
KMC4 152241Z 16013G18KT 36/09 A2986 RMK A01 T03620088  RH  019%=      5-min Rain = 0
KMC4 152242Z 17011KT 36/09 A2986 RMK A01 T03620089  RH  019%=      5-min Rain = 0
KMC4 152243Z 18010KT 36/09 A2986 RMK A01 T03610088  RH  019%=      5-min Rain = 0
KMC4 152244Z 18010KT 36/09 A2986 RMK A01 T03580089  RH  019%=      5-min Rain = 0
KMC4 152245Z 18012KT 36/09 A2986 RMK A01 T03590092  RH  020%=      5-min Rain = 0
KMC4 152246Z 19014KT 36/09 A2986 RMK A01 T03620091  RH  019%=      5-min Rain = 0
KMC4 152247Z 19012KT 36/09 A2986 RMK A01 T03620089  RH  019%=      5-min Rain = 0
KMC4 152248Z 18012KT 36/09 A2986 RMK A01 T03600090  RH  019%=      5-min Rain = 0
KMC4 152249Z 17013KT 36/09 A2986 RMK A01 T03590090  RH  019%=      5-min Rain = 0
KMC4 152250Z 17013KT 36/09 A2985 RMK A01 T03590089  RH  019%=      5-min Rain = 0
KMC4 152251Z 17011KT 36/09 A2985 RMK A01 T03580089  RH  019%=      5-min Rain = 0
KMC4 152252Z 17009KT 36/09 A2986 RMK A01 T03580090  RH  020%=      5-min Rain = 0
KMC4 152253Z 19012KT 36/09 A2985 RMK A01 T03580088  RH  019%=      5-min Rain = 0
KMC4 152254Z 19011KT 36/09 A2985 RMK A01 T03590087  RH  019%=      5-min Rain = 0
KMC4 152255Z 20012KT 36/09 A2985 RMK A01 T03590088  RH  019%=      5-min Rain = 0
KMC4 152256Z 17014KT 36/09 A2985 RMK A01 T03590089  RH  019%=      5-min Rain = 0
KMC4 152257Z 17009KT 36/09 A2985 RMK A01 T03620089  RH  019%=      5-min Rain = 0
KMC4 152258Z 16013G18KT 37/09 A2985 RMK A01 T03650088  RH  019%=      5-min Rain = 0
KMC4 152259Z 16015KT 37/09 A2985 RMK A01 T03660091  RH  019%=      5-min Rain = 0
KMC4 152300Z 16015KT 36/09 A2985 RMK A01 T03630090  RH  019%=      5-min Rain = 0
KMC4 152301Z 15013KT 36/09 A2985 RMK A01 T03600090  RH  019%=      5-min Rain = 0
KMC4 152302Z 15012KT 36/09 A2985 RMK A01 T03600090  RH  019%=      5-min Rain = 0
KMC4 152303Z 16012KT 36/09 A2985 RMK A01 T03580090  RH  019%=      5-min Rain = 0
KMC4 152304Z 15012KT 36/09 A2985 RMK A01 T03580090  RH  020%=      5-min Rain = 0
KMC4 152305Z 16014KT 36/09 A2985 RMK A01 T03580091  RH  020%=      5-min Rain = 0
KMC4 152306Z 16013KT 36/09 A2985 RMK A01 T03590093  RH  020%=      5-min Rain = 0
KMC4 152307Z 15013KT 36/09 A2985 RMK A01 T03600094  RH  020%=      5-min Rain = 0
KMC4 152308Z 17014KT 36/09 A2985 RMK A01 T03620094  RH  020%=      5-min Rain = 0
KMC4 152309Z 17015KT 36/09 A2985 RMK A01 T03610094  RH  020%=      5-min Rain = 0
KMC4 152310Z 17013KT 36/09 A2985 RMK A01 T03600093  RH  020%=      5-min Rain = 0
KMC4 152311Z 17013KT 36/09 A2985 RMK A01 T03600092  RH  020%=      5-min Rain = 0
KMC4 152312Z 16014KT 36/09 A2985 RMK A01 T03580093  RH  020%=      5-min Rain = 0
KMC4 152313Z 15012KT 36/09 A2985 RMK A01 T03570093  RH  020%=      5-min Rain = 0
KMC4 152314Z 15014KT 36/09 A2984 RMK A01 T03560094  RH  020%=      5-min Rain = 0
KMC4 152315Z 15014KT 36/10 A2984 RMK A01 T03570095  RH  020%=      5-min Rain = 0
KMC4 152316Z 16012KT 36/10 A2984 RMK A01 T03570096  RH  020%=      5-min Rain = 0
KMC4 152317Z 17013KT 36/10 A2985 RMK A01 T03600097  RH  020%=      5-min Rain = 0
KMC4 152318Z 16013KT 36/10 A2984 RMK A01 T03610095  RH  020%=      5-min Rain = 0
KMC4 152319Z 16012KT 36/09 A2984 RMK A01 T03580093  RH  020%=      5-min Rain = 0
KMC4 152320Z 16013KT 36/09 A2984 RMK A01 T03580094  RH  020%=      5-min Rain = 0
KMC4 152321Z 15015G20KT 36/09 A2984 RMK A01 T03580093  RH  020%=      5-min Rain = 0
KMC4 152322Z 16016KT 36/09 A2984 RMK A01 T03580093  RH  020%=      5-min Rain = 0
KMC4 152323Z 18012KT 36/09 A2984 RMK A01 T03570092  RH  020%=      5-min Rain = 0
KMC4 152324Z 18013KT 36/09 A2984 RMK A01 T03550092  RH  020%=      5-min Rain = 0
KMC4 152325Z 17010KT 35/09 A2984 RMK A01 T03540091  RH  020%=      5-min Rain = 0
KMC4 152326Z 15011KT 35/09 A2984 RMK A01 T03540091  RH  020%=      5-min Rain = 0
KMC4 152327Z 15012KT 36/09 A2984 RMK A01 T03560090  RH  020%=      5-min Rain = 0
KMC4 152328Z 17012KT 36/09 A2984 RMK A01 T03580091  RH  020%=      5-min Rain = 0
KMC4 152329Z 16012KT 36/09 A2984 RMK A01 T03600090  RH  019%=      5-min Rain = 0
KMC4 152330Z 16012KT 36/09 A2984 RMK A01 T03590088  RH  019%=      5-min Rain = 0
KMC4 152331Z 16016KT 36/09 A2984 RMK A01 T03590085  RH  019%=      5-min Rain = 0
KMC4 152332Z 15015KT 36/08 A2984 RMK A01 T03570083  RH  019%=      5-min Rain = 0
KMC4 152333Z 15016KT 36/08 A2984 RMK A01 T03560083  RH  019%=      5-min Rain = 0
KMC4 152334Z 14014KT 36/08 A2984 RMK A01 T03560083  RH  019%=      5-min Rain = 0
KMC4 152335Z 15011KT 36/08 A2984 RMK A01 T03550082  RH  019%=      5-min Rain = 0
KMC4 152336Z 17012KT 36/08 A2984 RMK A01 T03550082  RH  019%=      5-min Rain = 0
KMC4 152337Z 17012KT 36/08 A2984 RMK A01 T03550083  RH  019%=      5-min Rain = 0
KMC4 152338Z 16014KT 36/08 A2984 RMK A01 T03560084  RH  019%=      5-min Rain = 0
KMC4 152339Z 16013KT 36/08 A2984 RMK A01 T03560083  RH  019%=      5-min Rain = 0
KMC4 152340Z 16013KT 36/08 A2984 RMK A01 T03560083  RH  019%=      5-min Rain = 0
KMC4 152341Z 16013KT 36/08 A2984 RMK A01 T03560084  RH  019%=      5-min Rain = 0
KMC4 152342Z 17013KT 36/09 A2984 RMK A01 T03560086  RH  019%=      5-min Rain = 0
KMC4 152343Z 16009KT 36/09 A2984 RMK A01 T03550087  RH  019%=      5-min Rain = 0
KMC4 152344Z 16011KT 35/09 A2984 RMK A01 T03540087  RH  020%=      5-min Rain = 0
KMC4 152345Z 17010KT 35/09 A2984 RMK A01 T03540088  RH  020%=      5-min Rain = 0
KMC4 152346Z 17011KT 36/09 A2984 RMK A01 T03550089  RH  020%=      5-min Rain = 0
KMC4 152347Z 16011KT 36/09 A2984 RMK A01 T03560088  RH  019%=      5-min Rain = 0
KMC4 152348Z 16013KT 36/09 A2984 RMK A01 T03560088  RH  019%=      5-min Rain = 0
KMC4 152349Z 15015KT 36/09 A2984 RMK A01 T03560088  RH  019%=      5-min Rain = 0
KMC4 152350Z 16014KT 36/09 A2984 RMK A01 T03560089  RH  020%=      5-min Rain = 0
KMC4 152351Z 16012KT 36/09 A2984 RMK A01 T03570089  RH  020%=      5-min Rain = 0
KMC4 152352Z 16016KT 36/09 A2983 RMK A01 T03560089  RH  020%=      5-min Rain = 0
KMC4 152353Z 16015KT 36/09 A2983 RMK A01 T03550087  RH  019%=      5-min Rain = 0
KMC4 152354Z 16015KT 35/09 A2983 RMK A01 T03540088  RH  020%=      5-min Rain = 0
KMC4 152355Z 15016KT 35/09 A2983 RMK A01 T03540088  RH  020%=      5-min Rain = 0
KMC4 152356Z 15017KT 35/09 A2983 RMK A01 T03540087  RH  020%=      5-min Rain = 0
KMC4 152357Z 15015KT 35/09 A2983 RMK A01 T03540087  RH  020%=      5-min Rain = 0
KMC4 152358Z 15014KT 35/09 A2983 RMK A01 T03540086  RH  019%=      5-min Rain = 0
KMC4 152359Z 15011KT 35/09 A2983 RMK A01 T03530086  RH  020%=      5-min Rain = 0
KMC4 160000Z 15012KT 35/09 A2983 RMK A01 T03530086  RH  020%=      5-min Rain = 0
KMC4 160001Z 14011KT 35/09 A2983 RMK A01 T03540088  RH  020%=      5-min Rain = 0
KMC4 160002Z 16013KT 36/09 A2983 RMK A01 T03570089  RH  020%=      5-min Rain = 0
KMC4 160003Z 16012KT 36/09 A2983 RMK A01 T03570088  RH  019%=      5-min Rain = 0
KMC4 160004Z 16012KT 36/09 A2983 RMK A01 T03560089  RH  020%=      5-min Rain = 0
KMC4 160005Z 16012KT 36/09 A2983 RMK A01 T03550092  RH  020%=      5-min Rain = 0
KMC4 160006Z 15013KT 36/10 A2983 RMK A01 T03550100  RH  021%=      5-min Rain = 0
KMC4 160007Z 13015KT 35/10 A2983 RMK A01 T03540103  RH  022%=      5-min Rain = 0
KMC4 160008Z 14017KT 35/11 A2982 RMK A01 T03530106  RH  022%=      5-min Rain = 0
KMC4 160009Z 14014KT 35/11 A2982 RMK A01 T03520106  RH  023%=      5-min Rain = 0
KMC4 160010Z 14010KT 35/11 A2982 RMK A01 T03520107  RH  023%=      5-min Rain = 0
KMC4 160011Z 15012KT 35/11 A2982 RMK A01 T03520107  RH  023%=      5-min Rain = 0
KMC4 160012Z 16011KT 35/11 A2982 RMK A01 T03530108  RH  023%=      5-min Rain = 0
KMC4 160013Z 16012KT 35/11 A2982 RMK A01 T03540110  RH  023%=      5-min Rain = 0
KMC4 160014Z 17014KT 35/11 A2982 RMK A01 T03530111  RH  023%=      5-min Rain = 0
KMC4 160015Z 16015KT 35/11 A2982 RMK A01 T03500110  RH  023%=      5-min Rain = 0
KMC4 160016Z 16014KT 35/11 A2982 RMK A01 T03500106  RH  023%=      5-min Rain = 0
KMC4 160017Z 17011KT 35/11 A2982 RMK A01 T03490109  RH  023%=      5-min Rain = 0
KMC4 160018Z 17009KT 35/11 A2982 RMK A01 T03490111  RH  023%=      5-min Rain = 0
KMC4 160019Z 16013KT 35/11 A2982 RMK A01 T03490110  RH  024%=      5-min Rain = 0
KMC4 160020Z 16015KT 35/11 A2982 RMK A01 T03490112  RH  024%=      5-min Rain = 0
KMC4 160021Z 15015KT 35/11 A2982 RMK A01 T03480112  RH  024%=      5-min Rain = 0
KMC4 160022Z 15015KT 35/11 A2982 RMK A01 T03470113  RH  024%=      5-min Rain = 0
KMC4 160023Z 17013KT 35/11 A2982 RMK A01 T03470114  RH  024%=      5-min Rain = 0
KMC4 160024Z 16012KT 35/11 A2982 RMK A01 T03470113  RH  024%=      5-min Rain = 0
KMC4 160025Z 15011KT 35/11 A2982 RMK A01 T03470114  RH  024%=      5-min Rain = 0
KMC4 160026Z 16015KT 35/11 A2982 RMK A01 T03470113  RH  024%=      5-min Rain = 0
KMC4 160027Z 15014KT 35/11 A2982 RMK A01 T03470112  RH  024%=      5-min Rain = 0
KMC4 160028Z 16012KT 35/11 A2982 RMK A01 T03460112  RH  024%=      5-min Rain = 0
KMC4 160029Z 16010KT 35/11 A2982 RMK A01 T03460113  RH  024%=      5-min Rain = 0
KMC4 160030Z 16011KT 35/11 A2982 RMK A01 T03470113  RH  024%=      5-min Rain = 0
KMC4 160031Z 16012KT 35/11 A2982 RMK A01 T03480112  RH  024%=      5-min Rain = 0
KMC4 160032Z 17011KT 35/11 A2982 RMK A01 T03480111  RH  024%=      5-min Rain = 0
KMC4 160033Z 16011KT 35/11 A2982 RMK A01 T03480112  RH  024%=      5-min Rain = 0
KMC4 160034Z 17013KT 35/11 A2982 RMK A01 T03480108  RH  023%=      5-min Rain = 0
KMC4 160035Z 16009KT 35/11 A2982 RMK A01 T03480108  RH  023%=      5-min Rain = 0
KMC4 160036Z 16011KT 35/11 A2982 RMK A01 T03480109  RH  023%=      5-min Rain = 0
KMC4 160037Z 16011KT 35/11 A2982 RMK A01 T03490110  RH  024%=      5-min Rain = 0
KMC4 160038Z 16011KT 35/11 A2982 RMK A01 T03480111  RH  024%=      5-min Rain = 0
KMC4 160039Z 16013KT 35/11 A2982 RMK A01 T03470111  RH  024%=      5-min Rain = 0
KMC4 160040Z 15013KT 35/11 A2982 RMK A01 T03460111  RH  024%=      5-min Rain = 0
KMC4 160041Z 14014KT 35/11 A2982 RMK A01 T03460110  RH  024%=      5-min Rain = 0
KMC4 160042Z 15013KT 35/11 A2982 RMK A01 T03460110  RH  024%=      5-min Rain = 0
KMC4 160043Z 16012G17KT 35/11 A2982 RMK A01 T03460106  RH  023%=      5-min Rain = 0
KMC4 160044Z 15010KT 35/11 A2982 RMK A01 T03460105  RH  023%=      5-min Rain = 0
KMC4 160045Z 17012KT 35/10 A2982 RMK A01 T03470103  RH  023%=      5-min Rain = 0
KMC4 160046Z 17013KT 35/09 A2982 RMK A01 T03470093  RH  021%=      5-min Rain = 0
KMC4 160047Z 16012KT 35/09 A2982 RMK A01 T03480091  RH  021%=      5-min Rain = 0
KMC4 160048Z 16010KT 35/09 A2983 RMK A01 T03480090  RH  021%=      5-min Rain = 0
KMC4 160049Z 16014KT 35/09 A2982 RMK A01 T03480086  RH  020%=      5-min Rain = 0
KMC4 160050Z 16014KT 35/08 A2982 RMK A01 T03480081  RH  020%=      5-min Rain = 0
KMC4 160051Z 16013KT 35/08 A2982 RMK A01 T03470080  RH  019%=      5-min Rain = 0
KMC4 160052Z 17013KT 35/08 A2982 RMK A01 T03480080  RH  019%=      5-min Rain = 0
KMC4 160053Z 17012KT 35/08 A2982 RMK A01 T03470080  RH  019%=      5-min Rain = 0
KMC4 160054Z 16011KT 35/08 A2982 RMK A01 T03470081  RH  019%=      5-min Rain = 0
KMC4 160055Z 16012KT 35/08 A2983 RMK A01 T03470081  RH  019%=      5-min Rain = 0
KMC4 160056Z 17010KT 35/08 A2983 RMK A01 T03470081  RH  019%=      5-min Rain = 0
KMC4 160057Z 17011KT 35/08 A2983 RMK A01 T03470081  RH  020%=      5-min Rain = 0
KMC4 160058Z 17010KT 35/08 A2983 RMK A01 T03460081  RH  020%=      5-min Rain = 0
KMC4 160059Z 16009KT 35/08 A2983 RMK A01 T03460083  RH  020%=      5-min Rain = 0
KMC4 160100Z 16010KT 35/08 A2983 RMK A01 T03450083  RH  020%=      5-min Rain = 0
KMC4 160101Z 17010KT 35/09 A2983 RMK A01 T03450086  RH  020%=      5-min Rain = 0
KMC4 160102Z 17011KT 35/09 A2983 RMK A01 T03450088  RH  021%=      5-min Rain = 0
KMC4 160103Z 16012KT 34/09 A2983 RMK A01 T03440088  RH  021%=      5-min Rain = 0
KMC4 160104Z 16012KT 34/09 A2983 RMK A01 T03440087  RH  021%=      5-min Rain = 0
KMC4 160105Z 17009KT 34/09 A2983 RMK A01 T03440087  RH  021%=      5-min Rain = 0
KMC4 160106Z 17009KT 34/09 A2983 RMK A01 T03430086  RH  021%=      5-min Rain = 0
KMC4 160107Z 17009KT 34/09 A2983 RMK A01 T03430086  RH  021%=      5-min Rain = 0
KMC4 160108Z 16011KT 34/08 A2983 RMK A01 T03430082  RH  020%=      5-min Rain = 0
KMC4 160109Z 17012KT 34/08 A2983 RMK A01 T03420078  RH  020%=      5-min Rain = 0
KMC4 160110Z 17012KT 34/08 A2983 RMK A01 T03420080  RH  020%=      5-min Rain = 0
KMC4 160111Z 16011KT 34/08 A2983 RMK A01 T03430084  RH  020%=      5-min Rain = 0
KMC4 160112Z 16011KT 34/09 A2983 RMK A01 T03420092  RH  022%=      5-min Rain = 0
KMC4 160113Z 16009KT 34/10 A2983 RMK A01 T03410096  RH  022%=      5-min Rain = 0
KMC4 160114Z 15011KT 34/10 A2983 RMK A01 T03410099  RH  023%=      5-min Rain = 0
KMC4 160115Z 16011KT 34/10 A2983 RMK A01 T03390104  RH  024%=      5-min Rain = 0
KMC4 160116Z 15011KT 34/11 A2983 RMK A01 T03390105  RH  024%=      5-min Rain = 0
KMC4 160117Z 15011KT 34/11 A2983 RMK A01 T03380105  RH  024%=      5-min Rain = 0
KMC4 160118Z 16010KT 34/11 A2983 RMK A01 T03380105  RH  024%=      5-min Rain = 0
KMC4 160119Z 16010KT 34/10 A2983 RMK A01 T03380103  RH  024%=      5-min Rain = 0
KMC4 160120Z 16010KT 34/10 A2984 RMK A01 T03370102  RH  024%=      5-min Rain = 0
KMC4 160121Z 15010KT 34/10 A2984 RMK A01 T03370101  RH  024%=      5-min Rain = 0
KMC4 160122Z 16010KT 34/10 A2984 RMK A01 T03360098  RH  023%=      5-min Rain = 0
KMC4 160123Z 15010KT 34/10 A2984 RMK A01 T03370097  RH  023%=      5-min Rain = 0
KMC4 160124Z 16010KT 34/10 A2984 RMK A01 T03370097  RH  023%=      5-min Rain = 0
KMC4 160125Z 16008KT 34/10 A2984 RMK A01 T03360096  RH  023%=      5-min Rain = 0
KMC4 160126Z 16009KT 34/10 A2984 RMK A01 T03350095  RH  023%=      5-min Rain = 0
KMC4 160127Z 16009KT 34/09 A2984 RMK A01 T03350094  RH  023%=      5-min Rain = 0
KMC4 160128Z 16009KT 33/09 A2984 RMK A01 T03340092  RH  023%=      5-min Rain = 0
KMC4 160129Z 15008KT 33/09 A2984 RMK A01 T03340093  RH  023%=      5-min Rain = 0
KMC4 160130Z 16008KT 33/09 A2984 RMK A01 T03330094  RH  023%=      5-min Rain = 0
KMC4 160131Z 16009KT 33/10 A2984 RMK A01 T03320098  RH  024%=      5-min Rain = 0
KMC4 160132Z 16009KT 33/10 A2984 RMK A01 T03310102  RH  025%=      5-min Rain = 0
KMC4 160133Z 16009KT 33/10 A2984 RMK A01 T03300104  RH  025%=      5-min Rain = 0
KMC4 160134Z 16008KT 33/10 A2984 RMK A01 T03290104  RH  025%=      5-min Rain = 0
KMC4 160135Z 17008KT 33/10 A2984 RMK A01 T03280104  RH  025%=      5-min Rain = 0
KMC4 160136Z 16010KT 33/11 A2984 RMK A01 T03270105  RH  026%=      5-min Rain = 0
KMC4 160137Z 16010KT 33/11 A2984 RMK A01 T03270105  RH  026%=      5-min Rain = 0
KMC4 160138Z 16009KT 33/11 A2984 RMK A01 T03270105  RH  026%=      5-min Rain = 0
KMC4 160139Z 16010KT 33/11 A2984 RMK A01 T03270106  RH  026%=      5-min Rain = 0
KMC4 160140Z 16009KT 33/10 A2984 RMK A01 T03270104  RH  026%=      5-min Rain = 0
KMC4 160141Z 16009KT 33/11 A2985 RMK A01 T03270105  RH  026%=      5-min Rain = 0
KMC4 160142Z 16008KT 33/10 A2985 RMK A01 T03260104  RH  026%=      5-min Rain = 0
KMC4 160143Z 15009KT 33/10 A2985 RMK A01 T03260103  RH  026%=      5-min Rain = 0
KMC4 160144Z 15009KT 33/10 A2985 RMK A01 T03250103  RH  026%=      5-min Rain = 0
KMC4 160145Z 15008KT 33/10 A2985 RMK A01 T03250103  RH  026%=      5-min Rain = 0
KMC4 160146Z 15010KT 33/10 A2985 RMK A01 T03250102  RH  025%=      5-min Rain = 0
KMC4 160147Z 15008KT 33/10 A2985 RMK A01 T03250102  RH  025%=      5-min Rain = 0
KMC4 160148Z 16009KT 33/10 A2985 RMK A01 T03250102  RH  025%=      5-min Rain = 0
KMC4 160149Z 15009KT 33/10 A2985 RMK A01 T03250101  RH  025%=      5-min Rain = 0
KMC4 160150Z 15008KT 33/10 A2985 RMK A01 T03250100  RH  025%=      5-min Rain = 0
KMC4 160151Z 15007KT 32/10 A2985 RMK A01 T03240100  RH  025%=      5-min Rain = 0
KMC4 160152Z 15008KT 32/10 A2985 RMK A01 T03230099  RH  025%=      5-min Rain = 0
KMC4 160153Z 15008KT 32/10 A2985 RMK A01 T03230099  RH  025%=      5-min Rain = 0
KMC4 160154Z 15008KT 32/10 A2986 RMK A01 T03220098  RH  025%=      5-min Rain = 0
KMC4 160155Z 15008KT 32/10 A2985 RMK A01 T03220097  RH  025%=      5-min Rain = 0
KMC4 160156Z 15008KT 32/10 A2986 RMK A01 T03220097  RH  025%=      5-min Rain = 0
KMC4 160157Z 15008KT 32/10 A2986 RMK A01 T03220096  RH  025%=      5-min Rain = 0
KMC4 160158Z 14006KT 32/10 A2986 RMK A01 T03210096  RH  025%=      5-min Rain = 0
KMC4 160159Z 13006KT 32/10 A2986 RMK A01 T03210095  RH  025%=      5-min Rain = 0
KMC4 160200Z 13006KT 32/10 A2986 RMK A01 T03200095  RH  025%=      5-min Rain = 0
KMC4 160201Z 12006KT 32/10 A2986 RMK A01 T03190095  RH  025%=      5-min Rain = 0
KMC4 160202Z 10006KT 32/10 A2986 RMK A01 T03180095  RH  025%=      5-min Rain = 0
KMC4 160203Z 08006KT 32/10 A2986 RMK A01 T03180096  RH  025%=      5-min Rain = 0
KMC4 160204Z 07005KT 32/10 A2987 RMK A01 T03180096  RH  025%=      5-min Rain = 0
KMC4 160205Z 06006KT 32/10 A2987 RMK A01 T03170096  RH  025%=      5-min Rain = 0
KMC4 160206Z 06006KT 32/10 A2987 RMK A01 T03170096  RH  026%=      5-min Rain = 0
KMC4 160207Z 05007KT 32/10 A2987 RMK A01 T03160099  RH  026%=      5-min Rain = 0
KMC4 160208Z 07013KT 31/11 A2987 RMK A01 T03140114  RH  029%=      5-min Rain = 0
KMC4 160209Z 09010KT 31/13 A2987 RMK A01 T03100125  RH  032%=      5-min Rain = 0
KMC4 160210Z 10011KT 31/13 A2987 RMK A01 T03070128  RH  033%=      5-min Rain = 0
KMC4 160211Z 09010KT 31/13 A2987 RMK A01 T03050132  RH  035%=      5-min Rain = 0
KMC4 160212Z 08010KT 30/13 A2987 RMK A01 T03030133  RH  035%=      5-min Rain = 0
KMC4 160213Z 08010KT 30/14 A2987 RMK A01 T03020135  RH  036%=      5-min Rain = 0
KMC4 160214Z 08008KT 30/14 A2987 RMK A01 T03010138  RH  037%=      5-min Rain = 0
KMC4 160215Z 09008KT 30/14 A2987 RMK A01 T03000138  RH  037%=      5-min Rain = 0
KMC4 160216Z 09006KT 30/14 A2987 RMK A01 T02990139  RH  038%=      5-min Rain = 0
KMC4 160217Z 11008KT 30/14 A2987 RMK A01 T02990139  RH  038%=      5-min Rain = 0
KMC4 160218Z 10008KT 30/14 A2987 RMK A01 T02980140  RH  038%=      5-min Rain = 0
KMC4 160219Z 10008KT 30/14 A2987 RMK A01 T02980140  RH  038%=      5-min Rain = 0
KMC4 160220Z 10008KT 30/14 A2988 RMK A01 T02970140  RH  038%=      5-min Rain = 0
KMC4 160221Z 10008KT 30/14 A2988 RMK A01 T02970141  RH  038%=      5-min Rain = 0
KMC4 160222Z 11005KT 30/14 A2988 RMK A01 T02970141  RH  038%=      5-min Rain = 0
KMC4 160223Z 11006KT 30/14 A2988 RMK A01 T02970140  RH  038%=      5-min Rain = 0
KMC4 160224Z 12005KT 30/14 A2988 RMK A01 T02970140  RH  038%=      5-min Rain = 0
KMC4 160225Z 13006KT 30/14 A2988 RMK A01 T02960141  RH  039%=      5-min Rain = 0
KMC4 160226Z 11005KT 30/14 A2988 RMK A01 T02960140  RH  039%=      5-min Rain = 0
KMC4 160227Z 12007KT 30/14 A2988 RMK A01 T02960140  RH  039%=      5-min Rain = 0
KMC4 160228Z 12008KT 30/14 A2988 RMK A01 T02950140  RH  039%=      5-min Rain = 0
KMC4 160229Z 12009KT 30/14 A2988 RMK A01 T02960140  RH  039%=      5-min Rain = 0
KMC4 160230Z 11011KT 30/14 A2988 RMK A01 T02970140  RH  038%=      5-min Rain = 0
KMC4 160231Z 11011KT 30/14 A2988 RMK A01 T02990141  RH  038%=      5-min Rain = 0
KMC4 160232Z 12012KT 30/14 A2988 RMK A01 T03000141  RH  038%=      5-min Rain = 0
KMC4 160233Z 12013G18KT 30/14 A2988 RMK A01 T03010141  RH  038%=      5-min Rain = 0
KMC4 160234Z 12012KT 30/14 A2988 RMK A01 T03020142  RH  038%=      5-min Rain = 0
KMC4 160235Z 12011KT 30/14 A2988 RMK A01 T03020142  RH  038%=      5-min Rain = 0
KMC4 160236Z 12010G15KT 30/14 A2988 RMK A01 T03020142  RH  038%=      5-min Rain = 0
KMC4 160237Z 12011KT 30/14 A2988 RMK A01 T03020142  RH  038%=      5-min Rain = 0
KMC4 160238Z 12012KT 30/14 A2988 RMK A01 T03010142  RH  038%=      5-min Rain = 0
KMC4 160239Z 12011KT 30/14 A2988 RMK A01 T03010142  RH  038%=      5-min Rain = 0
KMC4 160240Z 12011KT 30/14 A2988 RMK A01 T03000143  RH  038%=      5-min Rain = 0
KMC4 160241Z 12013KT 30/14 A2988 RMK A01 T03000143  RH  038%=      5-min Rain = 0
KMC4 160242Z 12010KT 30/14 A2988 RMK A01 T03000143  RH  038%=      5-min Rain = 0
KMC4 160243Z 12014KT 30/14 A2988 RMK A01 T03000144  RH  039%=      5-min Rain = 0
KMC4 160244Z 12012KT 30/15 A2988 RMK A01 T03000145  RH  039%=      5-min Rain = 0
KMC4 160245Z 12012KT 30/14 A2988 RMK A01 T03000144  RH  039%=      5-min Rain = 0
KMC4 160246Z 13012KT 30/15 A2988 RMK A01 T03000145  RH  039%=      5-min Rain = 0
KMC4 160247Z 12011KT 30/15 A2988 RMK A01 T03000145  RH  039%=      5-min Rain = 0
KMC4 160248Z 12012KT 30/15 A2988 RMK A01 T02990146  RH  039%=      5-min Rain = 0
KMC4 160249Z 13013KT 30/15 A2988 RMK A01 T02990146  RH  039%=      5-min Rain = 0
KMC4 160250Z 13014KT 30/15 A2988 RMK A01 T02990147  RH  039%=      5-min Rain = 0
KMC4 160251Z 13015KT 30/15 A2988 RMK A01 T03000148  RH  040%=      5-min Rain = 0
KMC4 160252Z 13014KT 30/15 A2988 RMK A01 T03000148  RH  040%=      5-min Rain = 0
KMC4 160253Z 13011KT 30/15 A2989 RMK A01 T03000148  RH  040%=      5-min Rain = 0
KMC4 160254Z 13012KT 30/15 A2989 RMK A01 T03000149  RH  040%=      5-min Rain = 0
KMC4 160255Z 13013KT 30/15 A2989 RMK A01 T03000149  RH  040%=      5-min Rain = 0
KMC4 160256Z 13012KT 30/15 A2989 RMK A01 T03000149  RH  040%=      5-min Rain = 0
KMC4 160257Z 13011KT 30/15 A2989 RMK A01 T03000149  RH  040%=      5-min Rain = 0
KMC4 160258Z 13011KT 30/15 A2989 RMK A01 T02990149  RH  040%=      5-min Rain = 0
KMC4 160259Z 13013KT 30/15 A2989 RMK A01 T02990149  RH  040%=      5-min Rain = 0
KMC4 160300Z 13013KT 30/15 A2989 RMK A01 T02990149  RH  040%=      5-min Rain = 0
KMC4 160301Z 13012KT 30/15 A2989 RMK A01 T02990149  RH  040%=      5-min Rain = 0
KMC4 160302Z 12014KT 30/15 A2989 RMK A01 T02990149  RH  040%=      5-min Rain = 0
KMC4 160303Z 13011KT 30/15 A2989 RMK A01 T02990149  RH  040%=      5-min Rain = 0
KMC4 160304Z 13012KT 30/15 A2989 RMK A01 T03000150  RH  040%=      5-min Rain = 0
KMC4 160305Z 13013KT 30/15 A2989 RMK A01 T02990149  RH  040%=      5-min Rain = 0
KMC4 160306Z 13012KT 30/15 A2989 RMK A01 T02990150  RH  040%=      5-min Rain = 0
KMC4 160307Z 13009KT 30/15 A2989 RMK A01 T02990149  RH  040%=      5-min Rain = 0
KMC4 160308Z 12009KT 30/15 A2989 RMK A01 T02990149  RH  040%=      5-min Rain = 0
KMC4 160309Z 13010KT 30/15 A2989 RMK A01 T02980149  RH  040%=      5-min Rain = 0
KMC4 160310Z 13011KT 30/15 A2989 RMK A01 T02980149  RH  040%=      5-min Rain = 0
KMC4 160311Z 13010KT 30/15 A2989 RMK A01 T02980149  RH  040%=      5-min Rain = 0
KMC4 160312Z 14008KT 30/15 A2989 RMK A01 T02980149  RH  040%=      5-min Rain = 0
KMC4 160313Z 14008KT 30/15 A2989 RMK A01 T02980149  RH  040%=      5-min Rain = 0
KMC4 160314Z 14007KT 30/15 A2989 RMK A01 T02970149  RH  040%=      5-min Rain = 0
KMC4 160315Z 14009KT 30/15 A2989 RMK A01 T02970148  RH  041%=      5-min Rain = 0
KMC4 160316Z 13009KT 30/15 A2989 RMK A01 T02960149  RH  041%=      5-min Rain = 0
KMC4 160317Z 13009KT 30/15 A2989 RMK A01 T02960148  RH  041%=      5-min Rain = 0
KMC4 160318Z 13008KT 30/15 A2989 RMK A01 T02960148  RH  041%=      5-min Rain = 0
KMC4 160319Z 13010KT 30/15 A2989 RMK A01 T02960148  RH  041%=      5-min Rain = 0
KMC4 160320Z 13011KT 30/15 A2989 RMK A01 T02960148  RH  040%=      5-min Rain = 0
KMC4 160321Z 13009KT 30/15 A2989 RMK A01 T02960148  RH  040%=      5-min Rain = 0
KMC4 160322Z 13008KT 30/15 A2989 RMK A01 T02970148  RH  040%=      5-min Rain = 0
KMC4 160323Z 14010KT 30/15 A2989 RMK A01 T02970148  RH  040%=      5-min Rain = 0
KMC4 160324Z 13009KT 30/15 A2989 RMK A01 T02960147  RH  040%=      5-min Rain = 0
KMC4 160325Z 13010KT 30/15 A2989 RMK A01 T02960147  RH  040%=      5-min Rain = 0
KMC4 160326Z 14010KT 30/15 A299 RMK A01 T02960147  RH  040%=      5-min Rain = 0
KMC4 160327Z 13009KT 30/15 A2989 RMK A01 T02970147  RH  040%=      5-min Rain = 0
KMC4 160328Z 13011KT 30/15 A299 RMK A01 T02970146  RH  040%=      5-min Rain = 0
KMC4 160329Z 14011KT 30/15 A299 RMK A01 T02970146  RH  040%=      5-min Rain = 0
KMC4 160330Z 13009KT 30/15 A299 RMK A01 T02970146  RH  040%=      5-min Rain = 0
KMC4 160331Z 13010KT 30/15 A299 RMK A01 T02970146  RH  040%=      5-min Rain = 0
KMC4 160332Z 13010KT 30/15 A2989 RMK A01 T02970146  RH  040%=      5-min Rain = 0
KMC4 160333Z 13009KT 30/15 A2989 RMK A01 T02970146  RH  040%=      5-min Rain = 0
KMC4 160334Z 12008KT 30/15 A2989 RMK A01 T02970146  RH  040%=      5-min Rain = 0
KMC4 160335Z 12006KT 30/15 A2989 RMK A01 T02960145  RH  040%=      5-min Rain = 0
KMC4 160336Z 13008KT 30/15 A2989 RMK A01 T02960146  RH  040%=      5-min Rain = 0
KMC4 160337Z 13009KT 30/15 A2989 RMK A01 T02960146  RH  040%=      5-min Rain = 0
KMC4 160338Z 13009KT 30/15 A2989 RMK A01 T02960146  RH  040%=      5-min Rain = 0
KMC4 160339Z 12010KT 30/15 A299 RMK A01 T02950145  RH  040%=      5-min Rain = 0
KMC4 160340Z 12010KT 30/15 A299 RMK A01 T02950145  RH  040%=      5-min Rain = 0
KMC4 160341Z 12009KT 30/15 A299 RMK A01 T02950145  RH  040%=      5-min Rain = 0
KMC4 160342Z 12009KT 30/15 A299 RMK A01 T02950145  RH  040%=      5-min Rain = 0
KMC4 160343Z 13009KT 29/15 A299 RMK A01 T02940145  RH  040%=      5-min Rain = 0
KMC4 160344Z 13011KT 29/15 A299 RMK A01 T02940145  RH  040%=      5-min Rain = 0
KMC4 160345Z 12010KT 29/15 A299 RMK A01 T02930145  RH  040%=      5-min Rain = 0
KMC4 160346Z 13010KT 29/15 A299 RMK A01 T02930145  RH  040%=      5-min Rain = 0
KMC4 160347Z 13010KT 29/15 A299 RMK A01 T02930145  RH  041%=      5-min Rain = 0
KMC4 160348Z 13009KT 29/15 A299 RMK A01 T02930146  RH  041%=      5-min Rain = 0
KMC4 160349Z 13009KT 29/15 A299 RMK A01 T02920145  RH  041%=      5-min Rain = 0
KMC4 160350Z 13012KT 29/15 A299 RMK A01 T02930146  RH  041%=      5-min Rain = 0
KMC4 160351Z 12010KT 29/15 A299 RMK A01 T02920146  RH  041%=      5-min Rain = 0
KMC4 160352Z 13011KT 29/15 A299 RMK A01 T02920146  RH  041%=      5-min Rain = 0
KMC4 160353Z 13011KT 29/15 A299 RMK A01 T02920146  RH  041%=      5-min Rain = 0
KMC4 160354Z 13011KT 29/15 A299 RMK A01 T02920147  RH  041%=      5-min Rain = 0
KMC4 160355Z 13008KT 29/15 A299 RMK A01 T02920147  RH  041%=      5-min Rain = 0
KMC4 160356Z 13008KT 29/15 A299 RMK A01 T02920146  RH  041%=      5-min Rain = 0
KMC4 160357Z 13008KT 29/15 A299 RMK A01 T02910146  RH  041%=      5-min Rain = 0
KMC4 160358Z 13008KT 29/15 A299 RMK A01 T02900146  RH  041%=      5-min Rain = 0
KMC4 160359Z 13011KT 29/15 A299 RMK A01 T02890146  RH  042%=      5-min Rain = 0
KMC4 160400Z 12009KT 29/15 A299 RMK A01 T02900147  RH  042%=      5-min Rain = 0
KMC4 160401Z 13008KT 29/15 A299 RMK A01 T02900147  RH  042%=      5-min Rain = 0
KMC4 160402Z 13008KT 29/15 A299 RMK A01 T02900147  RH  042%=      5-min Rain = 0
KMC4 160403Z 13011KT 29/15 A299 RMK A01 T02890147  RH  042%=      5-min Rain = 0
KMC4 160404Z 13009KT 29/15 A299 RMK A01 T02890147  RH  042%=      5-min Rain = 0
KMC4 160405Z 13008KT 29/15 A299 RMK A01 T02890147  RH  042%=      5-min Rain = 0
KMC4 160406Z 13008KT 29/15 A299 RMK A01 T02890147  RH  042%=      5-min Rain = 0
KMC4 160407Z 13009KT 29/15 A299 RMK A01 T02880147  RH  042%=      5-min Rain = 0
KMC4 160408Z 13008KT 29/15 A299 RMK A01 T02880148  RH  042%=      5-min Rain = 0
KMC4 160409Z 12008KT 29/15 A299 RMK A01 T02880148  RH  042%=      5-min Rain = 0
KMC4 160410Z 12008KT 29/15 A299 RMK A01 T02870148  RH  042%=      5-min Rain = 0
KMC4 160411Z 12007KT 29/15 A299 RMK A01 T02870148  RH  043%=      5-min Rain = 0
KMC4 160412Z 12008KT 29/15 A2991 RMK A01 T02870148  RH  043%=      5-min Rain = 0
KMC4 160413Z 12007KT 29/15 A2991 RMK A01 T02870148  RH  043%=      5-min Rain = 0
KMC4 160414Z 13007KT 29/15 A2991 RMK A01 T02860148  RH  043%=      5-min Rain = 0
KMC4 160415Z 12006KT 29/15 A2991 RMK A01 T02860148  RH  043%=      5-min Rain = 0
KMC4 160416Z 12007KT 29/15 A2991 RMK A01 T02860148  RH  043%=      5-min Rain = 0
KMC4 160417Z 13007KT 29/15 A2991 RMK A01 T02850148  RH  043%=      5-min Rain = 0
KMC4 160418Z 12007KT 29/15 A2991 RMK A01 T02850148  RH  043%=      5-min Rain = 0
KMC4 160419Z 13007KT 29/15 A2991 RMK A01 T02860148  RH  043%=      5-min Rain = 0
KMC4 160420Z 12006KT 29/15 A2991 RMK A01 T02860148  RH  043%=      5-min Rain = 0
KMC4 160421Z 11006KT 29/15 A2991 RMK A01 T02860148  RH  043%=      5-min Rain = 0
KMC4 160422Z 12006KT 29/15 A2991 RMK A01 T02860148  RH  043%=      5-min Rain = 0
KMC4 160423Z 12006KT 29/15 A2991 RMK A01 T02860148  RH  043%=      5-min Rain = 0
KMC4 160424Z 12006KT 29/15 A2991 RMK A01 T02860148  RH  043%=      5-min Rain = 0
KMC4 160425Z 12006KT 29/15 A2991 RMK A01 T02860148  RH  043%=      5-min Rain = 0
KMC4 160426Z 13008KT 29/15 A2991 RMK A01 T02860148  RH  043%=      5-min Rain = 0
KMC4 160427Z 13007KT 29/15 A2991 RMK A01 T02860147  RH  043%=      5-min Rain = 0
KMC4 160428Z 11007KT 29/15 A2991 RMK A01 T02860147  RH  043%=      5-min Rain = 0
KMC4 160429Z 10006KT 29/15 A2992 RMK A01 T02860147  RH  043%=      5-min Rain = 0
KMC4 160430Z 09006KT 29/15 A2992 RMK A01 T02860148  RH  043%=      5-min Rain = 0
KMC4 160431Z 10007KT 29/15 A2992 RMK A01 T02850148  RH  043%=      5-min Rain = 0
KMC4 160432Z 11008KT 29/15 A2992 RMK A01 T02850148  RH  043%=      5-min Rain = 0
KMC4 160433Z 10008KT 29/15 A2992 RMK A01 T02850148  RH  043%=      5-min Rain = 0
KMC4 160434Z 11009KT 29/15 A2992 RMK A01 T02850149  RH  043%=      5-min Rain = 0
KMC4 160435Z 11007KT 29/15 A2992 RMK A01 T02850149  RH  043%=      5-min Rain = 0
KMC4 160436Z 11008KT 29/15 A2992 RMK A01 T02850149  RH  043%=      5-min Rain = 0
KMC4 160437Z 13010KT 29/15 A2992 RMK A01 T02850149  RH  043%=      5-min Rain = 0
KMC4 160438Z 11007KT 29/15 A2992 RMK A01 T02850149  RH  044%=      5-min Rain = 0
KMC4 160439Z 11007KT 29/15 A2992 RMK A01 T02850149  RH  044%=      5-min Rain = 0
KMC4 160440Z 11009KT 29/15 A2992 RMK A01 T02850150  RH  044%=      5-min Rain = 0
KMC4 160441Z 11007KT 29/15 A2992 RMK A01 T02850150  RH  044%=      5-min Rain = 0
KMC4 160442Z 11006KT 29/15 A2992 RMK A01 T02850150  RH  044%=      5-min Rain = 0
KMC4 160443Z 10006KT 28/15 A2992 RMK A01 T02840150  RH  044%=      5-min Rain = 0
KMC4 160444Z 10008KT 28/15 A2992 RMK A01 T02840150  RH  044%=      5-min Rain = 0
KMC4 160445Z 10007KT 28/15 A2992 RMK A01 T02840150  RH  044%=      5-min Rain = 0
KMC4 160446Z 10006KT 28/15 A2992 RMK A01 T02830150  RH  044%=      5-min Rain = 0
KMC4 160447Z 10005KT 28/15 A2992 RMK A01 T02830150  RH  044%=      5-min Rain = 0
KMC4 160448Z 10007KT 28/15 A2992 RMK A01 T02820150  RH  044%=      5-min Rain = 0
KMC4 160449Z 11007KT 28/15 A2992 RMK A01 T02820150  RH  045%=      5-min Rain = 0
KMC4 160450Z 11005KT 28/15 A2992 RMK A01 T02820150  RH  045%=      5-min Rain = 0
KMC4 160451Z 10006KT 28/15 A2992 RMK A01 T02810150  RH  045%=      5-min Rain = 0
KMC4 160452Z 10005KT 28/15 A2992 RMK A01 T02810151  RH  045%=      5-min Rain = 0
KMC4 160453Z 09006KT 28/15 A2993 RMK A01 T02810151  RH  045%=      5-min Rain = 0
KMC4 160454Z 09006KT 28/15 A2993 RMK A01 T02810151  RH  045%=      5-min Rain = 0
KMC4 160455Z 09007KT 28/15 A2993 RMK A01 T02810151  RH  045%=      5-min Rain = 0
KMC4 160456Z 08007KT 28/15 A2993 RMK A01 T02800151  RH  045%=      5-min Rain = 0
KMC4 160457Z 08010KT 28/15 A2993 RMK A01 T02790152  RH  046%=      5-min Rain = 0
KMC4 160458Z 07011KT 28/16 A2993 RMK A01 T02750156  RH  048%=      5-min Rain = 0
KMC4 160459Z 06011KT 27/16 A2993 RMK A01 T02690158  RH  051%=      5-min Rain = 0

Page generated in 0.1579 seconds.